<?xml version="1.0" encoding="UTF-8" standalone="no" ?>
<gpx xmlns="http://www.topografix.com/GPX/1/1" xmlns:xsi="http://www.w3.org/2001/XMLSchema-instance" xsi:schemaLocation="http://www.topografix.com/GPX/1/1 http://www.topografix.com/GPX/1/1/gpx.xsd" version="1.1" creator="VisuGPX - https://www.visugpx.com">
  <metadata>
    <name>Tour des 5 refuges, des chalets de Sales</name>
  </metadata>
  <trk>
    <name><![CDATA[Tour des 5 refuges, des chalets de Sales_1]]></name>
    <extensions>
      <line xmlns="http://www.topografix.com/GPX/gpx_style/0/2">
        <color>0000FF</color>
        <width>4</width>
      </line>
    </extensions>
    <trkseg>
      <trkpt lat="45.9891" lon="6.75253">
        <ele>1872.8</ele>
        <time>2000-01-01T02:06:50.000Z</time>
      </trkpt>
      <trkpt lat="45.9893" lon="6.75258">
        <ele>1870</ele>
        <time>2000-01-01T02:07:00.000Z</time>
      </trkpt>
      <trkpt lat="45.98971" lon="6.75255">
        <ele>1869</ele>
        <time>2000-01-01T02:07:10.000Z</time>
      </trkpt>
      <trkpt lat="45.99001" lon="6.75222">
        <ele>1869</ele>
        <time>2000-01-01T02:07:20.000Z</time>
      </trkpt>
      <trkpt lat="45.99016" lon="6.75196">
        <ele>1869</ele>
        <time>2000-01-01T02:07:30.000Z</time>
      </trkpt>
      <trkpt lat="45.99032" lon="6.7518">
        <ele>1868</ele>
        <time>2000-01-01T02:07:40.000Z</time>
      </trkpt>
      <trkpt lat="45.9905" lon="6.75187">
        <ele>1874</ele>
        <time>2000-01-01T02:07:50.000Z</time>
      </trkpt>
      <trkpt lat="45.99087" lon="6.75204">
        <ele>1868</ele>
        <time>2000-01-01T02:08:00.000Z</time>
      </trkpt>
      <trkpt lat="45.99123" lon="6.75214">
        <ele>1868</ele>
        <time>2000-01-01T02:08:10.000Z</time>
      </trkpt>
      <trkpt lat="45.99134" lon="6.75203">
        <ele>1874.8</ele>
        <time>2000-01-01T02:08:20.000Z</time>
      </trkpt>
      <trkpt lat="45.9915" lon="6.75198">
        <ele>1864</ele>
        <time>2000-01-01T02:08:30.000Z</time>
      </trkpt>
      <trkpt lat="45.99196" lon="6.75186">
        <ele>1861</ele>
        <time>2000-01-01T02:08:40.000Z</time>
      </trkpt>
      <trkpt lat="45.99231" lon="6.75163">
        <ele>1853</ele>
        <time>2000-01-01T02:08:50.000Z</time>
      </trkpt>
      <trkpt lat="45.99263" lon="6.75146">
        <ele>1847</ele>
        <time>2000-01-01T02:09:00.000Z</time>
      </trkpt>
      <trkpt lat="45.99299" lon="6.75143">
        <ele>1841</ele>
        <time>2000-01-01T02:09:10.000Z</time>
      </trkpt>
      <trkpt lat="45.99342" lon="6.75153">
        <ele>1833</ele>
        <time>2000-01-01T02:09:20.000Z</time>
      </trkpt>
      <trkpt lat="45.99372" lon="6.75171">
        <ele>1825</ele>
        <time>2000-01-01T02:09:30.000Z</time>
      </trkpt>
      <trkpt lat="45.99395" lon="6.75183">
        <ele>1821</ele>
        <time>2000-01-01T02:09:40.000Z</time>
      </trkpt>
      <trkpt lat="45.99419" lon="6.75188">
        <ele>1821</ele>
        <time>2000-01-01T02:09:50.000Z</time>
      </trkpt>
      <trkpt lat="45.99443" lon="6.75193">
        <ele>1814</ele>
        <time>2000-01-01T02:10:00.000Z</time>
      </trkpt>
      <trkpt lat="45.99481" lon="6.75164">
        <ele>1811</ele>
        <time>2000-01-01T02:10:10.000Z</time>
      </trkpt>
      <trkpt lat="45.99515" lon="6.75165">
        <ele>1805</ele>
        <time>2000-01-01T02:10:20.000Z</time>
      </trkpt>
      <trkpt lat="45.99537" lon="6.75159">
        <ele>1802</ele>
        <time>2000-01-01T02:10:30.000Z</time>
      </trkpt>
      <trkpt lat="45.99548" lon="6.75143">
        <ele>1816.8</ele>
        <time>2000-01-01T02:10:40.000Z</time>
      </trkpt>
      <trkpt lat="45.99563" lon="6.75138">
        <ele>1801</ele>
        <time>2000-01-01T02:10:50.000Z</time>
      </trkpt>
      <trkpt lat="45.99585" lon="6.75142">
        <ele>1792</ele>
        <time>2000-01-01T02:11:00.000Z</time>
      </trkpt>
      <trkpt lat="45.99596" lon="6.75151">
        <ele>1793.5</ele>
        <time>2000-01-01T02:11:10.000Z</time>
      </trkpt>
      <trkpt lat="45.99611" lon="6.75149">
        <ele>1789</ele>
        <time>2000-01-01T02:11:20.000Z</time>
      </trkpt>
      <trkpt lat="45.99625" lon="6.75153">
        <ele>1792.6</ele>
        <time>2000-01-01T02:11:30.000Z</time>
      </trkpt>
      <trkpt lat="45.9966" lon="6.75169">
        <ele>1780</ele>
        <time>2000-01-01T02:11:40.000Z</time>
      </trkpt>
      <trkpt lat="45.99682" lon="6.75168">
        <ele>1777</ele>
        <time>2000-01-01T02:11:50.000Z</time>
      </trkpt>
      <trkpt lat="45.99692" lon="6.75177">
        <ele>1772.6</ele>
        <time>2000-01-01T02:12:00.000Z</time>
      </trkpt>
      <trkpt lat="45.99714" lon="6.75181">
        <ele>1766</ele>
        <time>2000-01-01T02:12:10.000Z</time>
      </trkpt>
      <trkpt lat="45.99724" lon="6.75171">
        <ele>1769.7</ele>
        <time>2000-01-01T02:12:20.000Z</time>
      </trkpt>
      <trkpt lat="45.9974" lon="6.75171">
        <ele>1766</ele>
        <time>2000-01-01T02:12:30.000Z</time>
      </trkpt>
      <trkpt lat="45.99757" lon="6.75177">
        <ele>1765.1</ele>
        <time>2000-01-01T02:12:40.000Z</time>
      </trkpt>
      <trkpt lat="45.99765" lon="6.75184">
        <ele>1759</ele>
        <time>2000-01-01T02:12:50.000Z</time>
      </trkpt>
      <trkpt lat="45.99781" lon="6.75196">
        <ele>1761.5</ele>
        <time>2000-01-01T02:13:00.000Z</time>
      </trkpt>
      <trkpt lat="45.99792" lon="6.75206">
        <ele>1753</ele>
        <time>2000-01-01T02:13:10.000Z</time>
      </trkpt>
      <trkpt lat="45.99783" lon="6.75211">
        <ele>1759.1</ele>
        <time>2000-01-01T02:13:20.000Z</time>
      </trkpt>
      <trkpt lat="45.9977" lon="6.75211">
        <ele>1746</ele>
        <time>2000-01-01T02:13:30.000Z</time>
      </trkpt>
      <trkpt lat="45.99779" lon="6.75226">
        <ele>1757.2</ele>
        <time>2000-01-01T02:13:40.000Z</time>
      </trkpt>
      <trkpt lat="45.99785" lon="6.75271">
        <ele>1739</ele>
        <time>2000-01-01T02:13:50.000Z</time>
      </trkpt>
      <trkpt lat="45.99792" lon="6.75289">
        <ele>1743.9</ele>
        <time>2000-01-01T02:14:00.000Z</time>
      </trkpt>
      <trkpt lat="45.99796" lon="6.75283">
        <ele>1738</ele>
        <time>2000-01-01T02:14:10.000Z</time>
      </trkpt>
      <trkpt lat="45.99798" lon="6.75264">
        <ele>1742.3</ele>
        <time>2000-01-01T02:14:20.000Z</time>
      </trkpt>
      <trkpt lat="45.99804" lon="6.75249">
        <ele>1737</ele>
        <time>2000-01-01T02:14:30.000Z</time>
      </trkpt>
      <trkpt lat="45.99813" lon="6.75237">
        <ele>1749.2</ele>
        <time>2000-01-01T02:14:40.000Z</time>
      </trkpt>
      <trkpt lat="45.99825" lon="6.75228">
        <ele>1737</ele>
        <time>2000-01-01T02:14:50.000Z</time>
      </trkpt>
      <trkpt lat="45.99837" lon="6.75221">
        <ele>1748</ele>
        <time>2000-01-01T02:15:00.000Z</time>
      </trkpt>
      <trkpt lat="45.99851" lon="6.75226">
        <ele>1729</ele>
        <time>2000-01-01T02:15:10.000Z</time>
      </trkpt>
      <trkpt lat="45.99868" lon="6.75227">
        <ele>1746.2</ele>
        <time>2000-01-01T02:15:20.000Z</time>
      </trkpt>
      <trkpt lat="45.99868" lon="6.75233">
        <ele>1721</ele>
        <time>2000-01-01T02:15:30.000Z</time>
      </trkpt>
      <trkpt lat="45.9986" lon="6.75238">
        <ele>1743.2</ele>
        <time>2000-01-01T02:15:40.000Z</time>
      </trkpt>
      <trkpt lat="45.99849" lon="6.75257">
        <ele>1715</ele>
        <time>2000-01-01T02:15:50.000Z</time>
      </trkpt>
      <trkpt lat="45.99839" lon="6.75262">
        <ele>1721.5</ele>
        <time>2000-01-01T02:16:00.000Z</time>
      </trkpt>
      <trkpt lat="45.99834" lon="6.75268">
        <ele>1719.4</ele>
        <time>2000-01-01T02:16:10.000Z</time>
      </trkpt>
      <trkpt lat="45.99844" lon="6.7528">
        <ele>1705</ele>
        <time>2000-01-01T02:16:20.000Z</time>
      </trkpt>
      <trkpt lat="45.99853" lon="6.75281">
        <ele>1712.7</ele>
        <time>2000-01-01T02:16:30.000Z</time>
      </trkpt>
      <trkpt lat="45.99875" lon="6.75287">
        <ele>1696</ele>
        <time>2000-01-01T02:16:40.000Z</time>
      </trkpt>
      <trkpt lat="45.99889" lon="6.75297">
        <ele>1703.9</ele>
        <time>2000-01-01T02:16:50.000Z</time>
      </trkpt>
      <trkpt lat="45.99906" lon="6.75306">
        <ele>1681</ele>
        <time>2000-01-01T02:17:00.000Z</time>
      </trkpt>
      <trkpt lat="45.99921" lon="6.7531">
        <ele>1687.6</ele>
        <time>2000-01-01T02:17:10.000Z</time>
      </trkpt>
      <trkpt lat="45.99938" lon="6.7531">
        <ele>1681</ele>
        <time>2000-01-01T02:17:20.000Z</time>
      </trkpt>
      <trkpt lat="45.99959" lon="6.75335">
        <ele>1667</ele>
        <time>2000-01-01T02:17:30.000Z</time>
      </trkpt>
      <trkpt lat="45.99978" lon="6.75338">
        <ele>1665</ele>
        <time>2000-01-01T02:17:40.000Z</time>
      </trkpt>
      <trkpt lat="46.00012" lon="6.75332">
        <ele>1657</ele>
        <time>2000-01-01T02:17:50.000Z</time>
      </trkpt>
      <trkpt lat="46.00034" lon="6.75348">
        <ele>1657</ele>
        <time>2000-01-01T02:18:00.000Z</time>
      </trkpt>
      <trkpt lat="46.00047" lon="6.75347">
        <ele>1673.4</ele>
        <time>2000-01-01T02:18:10.000Z</time>
      </trkpt>
      <trkpt lat="46.00068" lon="6.75338">
        <ele>1657</ele>
        <time>2000-01-01T02:18:20.000Z</time>
      </trkpt>
      <trkpt lat="46.0008" lon="6.75347">
        <ele>1680.3</ele>
        <time>2000-01-01T02:18:30.000Z</time>
      </trkpt>
      <trkpt lat="46.0009" lon="6.75347">
        <ele>1651</ele>
        <time>2000-01-01T02:18:40.000Z</time>
      </trkpt>
      <trkpt lat="46.00102" lon="6.75341">
        <ele>1683.6</ele>
        <time>2000-01-01T02:18:50.000Z</time>
      </trkpt>
      <trkpt lat="46.00117" lon="6.75344">
        <ele>1650</ele>
        <time>2000-01-01T02:19:00.000Z</time>
      </trkpt>
      <trkpt lat="46.00139" lon="6.75355">
        <ele>1651</ele>
        <time>2000-01-01T02:19:10.000Z</time>
      </trkpt>
      <trkpt lat="46.00149" lon="6.75344">
        <ele>1684.8</ele>
        <time>2000-01-01T02:19:20.000Z</time>
      </trkpt>
      <trkpt lat="46.00161" lon="6.75329">
        <ele>1649</ele>
        <time>2000-01-01T02:19:30.000Z</time>
      </trkpt>
      <trkpt lat="46.00183" lon="6.75318">
        <ele>1647</ele>
        <time>2000-01-01T02:19:40.000Z</time>
      </trkpt>
      <trkpt lat="46.00208" lon="6.7532">
        <ele>1647</ele>
        <time>2000-01-01T02:19:50.000Z</time>
      </trkpt>
      <trkpt lat="46.00229" lon="6.75302">
        <ele>1647</ele>
        <time>2000-01-01T02:20:00.000Z</time>
      </trkpt>
      <trkpt lat="46.00251" lon="6.75292">
        <ele>1647</ele>
        <time>2000-01-01T02:20:10.000Z</time>
      </trkpt>
      <trkpt lat="46.00287" lon="6.7527">
        <ele>1637</ele>
        <time>2000-01-01T02:20:20.000Z</time>
      </trkpt>
      <trkpt lat="46.00309" lon="6.75276">
        <ele>1643</ele>
        <time>2000-01-01T02:20:30.000Z</time>
      </trkpt>
      <trkpt lat="46.00323" lon="6.75257">
        <ele>1632</ele>
        <time>2000-01-01T02:20:40.000Z</time>
      </trkpt>
      <trkpt lat="46.00347" lon="6.75263">
        <ele>1621</ele>
        <time>2000-01-01T02:20:50.000Z</time>
      </trkpt>
      <trkpt lat="46.00374" lon="6.75271">
        <ele>1604</ele>
        <time>2000-01-01T02:21:00.000Z</time>
      </trkpt>
      <trkpt lat="46.00407" lon="6.75271">
        <ele>1597</ele>
        <time>2000-01-01T02:21:10.000Z</time>
      </trkpt>
      <trkpt lat="46.00429" lon="6.75289">
        <ele>1592</ele>
        <time>2000-01-01T02:21:20.000Z</time>
      </trkpt>
      <trkpt lat="46.00454" lon="6.75311">
        <ele>1579</ele>
        <time>2000-01-01T02:21:30.000Z</time>
      </trkpt>
      <trkpt lat="46.00475" lon="6.75314">
        <ele>1577</ele>
        <time>2000-01-01T02:21:40.000Z</time>
      </trkpt>
      <trkpt lat="46.00495" lon="6.75319">
        <ele>1575</ele>
        <time>2000-01-01T02:21:50.000Z</time>
      </trkpt>
      <trkpt lat="46.00527" lon="6.75342">
        <ele>1561</ele>
        <time>2000-01-01T02:22:00.000Z</time>
      </trkpt>
      <trkpt lat="46.00565" lon="6.75378">
        <ele>1553</ele>
        <time>2000-01-01T02:22:10.000Z</time>
      </trkpt>
      <trkpt lat="46.00574" lon="6.75395">
        <ele>1560.9</ele>
        <time>2000-01-01T02:22:20.000Z</time>
      </trkpt>
      <trkpt lat="46.00585" lon="6.754">
        <ele>1550</ele>
        <time>2000-01-01T02:22:30.000Z</time>
      </trkpt>
      <trkpt lat="46.00588" lon="6.7541">
        <ele>1557.4</ele>
        <time>2000-01-01T02:22:40.000Z</time>
      </trkpt>
      <trkpt lat="46.0059" lon="6.75419">
        <ele>1553.2</ele>
        <time>2000-01-01T02:22:50.000Z</time>
      </trkpt>
      <trkpt lat="46.00624" lon="6.75452">
        <ele>1546</ele>
        <time>2000-01-01T02:23:00.000Z</time>
      </trkpt>
      <trkpt lat="46.00646" lon="6.75461">
        <ele>1546</ele>
        <time>2000-01-01T02:23:10.000Z</time>
      </trkpt>
      <trkpt lat="46.0066" lon="6.75476">
        <ele>1552.1</ele>
        <time>2000-01-01T02:23:20.000Z</time>
      </trkpt>
      <trkpt lat="46.00684" lon="6.75491">
        <ele>1545</ele>
        <time>2000-01-01T02:23:30.000Z</time>
      </trkpt>
      <trkpt lat="46.00706" lon="6.75527">
        <ele>1545</ele>
        <time>2000-01-01T02:23:40.000Z</time>
      </trkpt>
      <trkpt lat="46.00706" lon="6.75554">
        <ele>1551.2</ele>
        <time>2000-01-01T02:23:50.000Z</time>
      </trkpt>
      <trkpt lat="46.00699" lon="6.7557">
        <ele>1543</ele>
        <time>2000-01-01T02:24:00.000Z</time>
      </trkpt>
      <trkpt lat="46.00699" lon="6.75596">
        <ele>1549.3</ele>
        <time>2000-01-01T02:24:10.000Z</time>
      </trkpt>
      <trkpt lat="46.00713" lon="6.75598">
        <ele>1542</ele>
        <time>2000-01-01T02:24:20.000Z</time>
      </trkpt>
      <trkpt lat="46.00726" lon="6.75601">
        <ele>1548.9</ele>
        <time>2000-01-01T02:24:30.000Z</time>
      </trkpt>
      <trkpt lat="46.00736" lon="6.75621">
        <ele>1541</ele>
        <time>2000-01-01T02:24:40.000Z</time>
      </trkpt>
      <trkpt lat="46.00748" lon="6.75638">
        <ele>1547.4</ele>
        <time>2000-01-01T02:24:50.000Z</time>
      </trkpt>
      <trkpt lat="46.00753" lon="6.75648">
        <ele>1541</ele>
        <time>2000-01-01T02:25:00.000Z</time>
      </trkpt>
      <trkpt lat="46.00755" lon="6.75664">
        <ele>1545.5</ele>
        <time>2000-01-01T02:25:10.000Z</time>
      </trkpt>
      <trkpt lat="46.0077" lon="6.75691">
        <ele>1540</ele>
        <time>2000-01-01T02:25:20.000Z</time>
      </trkpt>
      <trkpt lat="46.00787" lon="6.75721">
        <ele>1540</ele>
        <time>2000-01-01T02:25:30.000Z</time>
      </trkpt>
      <trkpt lat="46.00801" lon="6.75733">
        <ele>1546.5</ele>
        <time>2000-01-01T02:25:40.000Z</time>
      </trkpt>
      <trkpt lat="46.00822" lon="6.7576">
        <ele>1539</ele>
        <time>2000-01-01T02:25:50.000Z</time>
      </trkpt>
      <trkpt lat="46.00838" lon="6.75773">
        <ele>1542.2</ele>
        <time>2000-01-01T02:26:00.000Z</time>
      </trkpt>
      <trkpt lat="46.00859" lon="6.75785">
        <ele>1538</ele>
        <time>2000-01-01T02:26:10.000Z</time>
      </trkpt>
      <trkpt lat="46.00866" lon="6.75792">
        <ele>1543.2</ele>
        <time>2000-01-01T02:26:20.000Z</time>
      </trkpt>
      <trkpt lat="46.00869" lon="6.75808">
        <ele>1537</ele>
        <time>2000-01-01T02:26:30.000Z</time>
      </trkpt>
      <trkpt lat="46.00888" lon="6.75811">
        <ele>1535</ele>
        <time>2000-01-01T02:26:40.000Z</time>
      </trkpt>
      <trkpt lat="46.00897" lon="6.75823">
        <ele>1540</ele>
        <time>2000-01-01T02:26:50.000Z</time>
      </trkpt>
      <trkpt lat="46.00905" lon="6.75818">
        <ele>1533</ele>
        <time>2000-01-01T02:27:00.000Z</time>
      </trkpt>
      <trkpt lat="46.00925" lon="6.7584">
        <ele>1532</ele>
        <time>2000-01-01T02:27:10.000Z</time>
      </trkpt>
      <trkpt lat="46.00939" lon="6.7585">
        <ele>1535.3</ele>
        <time>2000-01-01T02:27:20.000Z</time>
      </trkpt>
      <trkpt lat="46.00959" lon="6.75853">
        <ele>1532</ele>
        <time>2000-01-01T02:27:30.000Z</time>
      </trkpt>
      <trkpt lat="46.00974" lon="6.75857">
        <ele>1534.7</ele>
        <time>2000-01-01T02:27:40.000Z</time>
      </trkpt>
      <trkpt lat="46.00978" lon="6.75886">
        <ele>1532</ele>
        <time>2000-01-01T02:27:50.000Z</time>
      </trkpt>
      <trkpt lat="46.00991" lon="6.75898">
        <ele>1534.6</ele>
        <time>2000-01-01T02:28:00.000Z</time>
      </trkpt>
      <trkpt lat="46.00996" lon="6.75884">
        <ele>1528</ele>
        <time>2000-01-01T02:28:10.000Z</time>
      </trkpt>
      <trkpt lat="46.01007" lon="6.75865">
        <ele>1524.7</ele>
        <time>2000-01-01T02:28:20.000Z</time>
      </trkpt>
      <trkpt lat="46.01033" lon="6.75852">
        <ele>1518</ele>
        <time>2000-01-01T02:28:30.000Z</time>
      </trkpt>
      <trkpt lat="46.01068" lon="6.75852">
        <ele>1515</ele>
        <time>2000-01-01T02:28:40.000Z</time>
      </trkpt>
      <trkpt lat="46.0105" lon="6.75879">
        <ele>1513</ele>
        <time>2000-01-01T02:28:50.000Z</time>
      </trkpt>
      <trkpt lat="46.01069" lon="6.75888">
        <ele>1506</ele>
        <time>2000-01-01T02:29:00.000Z</time>
      </trkpt>
      <trkpt lat="46.01106" lon="6.75904">
        <ele>1487</ele>
        <time>2000-01-01T02:29:10.000Z</time>
      </trkpt>
      <trkpt lat="46.01129" lon="6.75928">
        <ele>1481</ele>
        <time>2000-01-01T02:29:20.000Z</time>
      </trkpt>
      <trkpt lat="46.0115" lon="6.75947">
        <ele>1466</ele>
        <time>2000-01-01T02:29:30.000Z</time>
      </trkpt>
      <trkpt lat="46.01174" lon="6.75969">
        <ele>1459</ele>
        <time>2000-01-01T02:29:40.000Z</time>
      </trkpt>
      <trkpt lat="46.01182" lon="6.75979">
        <ele>1463.1</ele>
        <time>2000-01-01T02:29:50.000Z</time>
      </trkpt>
      <trkpt lat="46.01225" lon="6.75995">
        <ele>1456</ele>
        <time>2000-01-01T02:30:00.000Z</time>
      </trkpt>
      <trkpt lat="46.01218" lon="6.76014">
        <ele>1462.8</ele>
        <time>2000-01-01T02:30:10.000Z</time>
      </trkpt>
      <trkpt lat="46.01212" lon="6.76026">
        <ele>1459</ele>
        <time>2000-01-01T02:30:20.000Z</time>
      </trkpt>
      <trkpt lat="46.01212" lon="6.76038">
        <ele>1468</ele>
        <time>2000-01-01T02:30:30.000Z</time>
      </trkpt>
      <trkpt lat="46.01209" lon="6.76051">
        <ele>1470.4</ele>
        <time>2000-01-01T02:30:40.000Z</time>
      </trkpt>
      <trkpt lat="46.01217" lon="6.76059">
        <ele>1462</ele>
        <time>2000-01-01T02:30:50.000Z</time>
      </trkpt>
      <trkpt lat="46.01225" lon="6.76096">
        <ele>1468</ele>
        <time>2000-01-01T02:31:00.000Z</time>
      </trkpt>
      <trkpt lat="46.0124" lon="6.76144">
        <ele>1476</ele>
        <time>2000-01-01T02:31:10.000Z</time>
      </trkpt>
      <trkpt lat="46.01248" lon="6.76161">
        <ele>1483.6</ele>
        <time>2000-01-01T02:31:20.000Z</time>
      </trkpt>
      <trkpt lat="46.01249" lon="6.76176">
        <ele>1475</ele>
        <time>2000-01-01T02:31:30.000Z</time>
      </trkpt>
      <trkpt lat="46.01272" lon="6.76195">
        <ele>1479</ele>
        <time>2000-01-01T02:31:40.000Z</time>
      </trkpt>
      <trkpt lat="46.0128" lon="6.76209">
        <ele>1483.5</ele>
        <time>2000-01-01T02:31:50.000Z</time>
      </trkpt>
      <trkpt lat="46.01305" lon="6.76223">
        <ele>1484</ele>
        <time>2000-01-01T02:32:00.000Z</time>
      </trkpt>
      <trkpt lat="46.01328" lon="6.76247">
        <ele>1489</ele>
        <time>2000-01-01T02:32:10.000Z</time>
      </trkpt>
      <trkpt lat="46.01339" lon="6.7629">
        <ele>1492</ele>
        <time>2000-01-01T02:32:20.000Z</time>
      </trkpt>
      <trkpt lat="46.01357" lon="6.76318">
        <ele>1495</ele>
        <time>2000-01-01T02:32:30.000Z</time>
      </trkpt>
      <trkpt lat="46.01364" lon="6.76349">
        <ele>1496</ele>
        <time>2000-01-01T02:32:40.000Z</time>
      </trkpt>
      <trkpt lat="46.01382" lon="6.76378">
        <ele>1497</ele>
        <time>2000-01-01T02:32:50.000Z</time>
      </trkpt>
      <trkpt lat="46.01384" lon="6.76401">
        <ele>1494.8</ele>
        <time>2000-01-01T02:33:00.000Z</time>
      </trkpt>
      <trkpt lat="46.01392" lon="6.7642">
        <ele>1498</ele>
        <time>2000-01-01T02:33:10.000Z</time>
      </trkpt>
      <trkpt lat="46.01391" lon="6.76437">
        <ele>1514.3</ele>
        <time>2000-01-01T02:33:20.000Z</time>
      </trkpt>
      <trkpt lat="46.01403" lon="6.76449">
        <ele>1503</ele>
        <time>2000-01-01T02:33:30.000Z</time>
      </trkpt>
      <trkpt lat="46.01417" lon="6.76457">
        <ele>1483.7</ele>
        <time>2000-01-01T02:33:40.000Z</time>
      </trkpt>
      <trkpt lat="46.01417" lon="6.76474">
        <ele>1512</ele>
        <time>2000-01-01T02:33:50.000Z</time>
      </trkpt>
      <trkpt lat="46.01427" lon="6.76477">
        <ele>1491.4</ele>
        <time>2000-01-01T02:34:00.000Z</time>
      </trkpt>
      <trkpt lat="46.01423" lon="6.76484">
        <ele>1498.9</ele>
        <time>2000-01-01T02:34:10.000Z</time>
      </trkpt>
      <trkpt lat="46.01438" lon="6.76491">
        <ele>1517</ele>
        <time>2000-01-01T02:34:20.000Z</time>
      </trkpt>
      <trkpt lat="46.01441" lon="6.76504">
        <ele>1515.2</ele>
        <time>2000-01-01T02:34:30.000Z</time>
      </trkpt>
      <trkpt lat="46.01435" lon="6.76517">
        <ele>1524</ele>
        <time>2000-01-01T02:34:40.000Z</time>
      </trkpt>
      <trkpt lat="46.01429" lon="6.76526">
        <ele>1519.5</ele>
        <time>2000-01-01T02:34:50.000Z</time>
      </trkpt>
      <trkpt lat="46.01416" lon="6.76533">
        <ele>1532</ele>
        <time>2000-01-01T02:35:00.000Z</time>
      </trkpt>
      <trkpt lat="46.01408" lon="6.76542">
        <ele>1545.4</ele>
        <time>2000-01-01T02:35:10.000Z</time>
      </trkpt>
      <trkpt lat="46.0139" lon="6.76536">
        <ele>1540</ele>
        <time>2000-01-01T02:35:20.000Z</time>
      </trkpt>
      <trkpt lat="46.01379" lon="6.76539">
        <ele>1547.6</ele>
        <time>2000-01-01T02:35:30.000Z</time>
      </trkpt>
      <trkpt lat="46.01386" lon="6.76548">
        <ele>1543</ele>
        <time>2000-01-01T02:35:40.000Z</time>
      </trkpt>
      <trkpt lat="46.01384" lon="6.76555">
        <ele>1549.6</ele>
        <time>2000-01-01T02:35:50.000Z</time>
      </trkpt>
      <trkpt lat="46.0136" lon="6.76556">
        <ele>1553</ele>
        <time>2000-01-01T02:36:00.000Z</time>
      </trkpt>
      <trkpt lat="46.0137" lon="6.76571">
        <ele>1553.6</ele>
        <time>2000-01-01T02:36:10.000Z</time>
      </trkpt>
      <trkpt lat="46.01375" lon="6.76589">
        <ele>1558</ele>
        <time>2000-01-01T02:36:20.000Z</time>
      </trkpt>
      <trkpt lat="46.01382" lon="6.76601">
        <ele>1571.5</ele>
        <time>2000-01-01T02:36:30.000Z</time>
      </trkpt>
      <trkpt lat="46.01392" lon="6.76604">
        <ele>1560</ele>
        <time>2000-01-01T02:36:40.000Z</time>
      </trkpt>
      <trkpt lat="46.01399" lon="6.76622">
        <ele>1573.3</ele>
        <time>2000-01-01T02:36:50.000Z</time>
      </trkpt>
      <trkpt lat="46.0144" lon="6.76641">
        <ele>1576</ele>
        <time>2000-01-01T02:37:00.000Z</time>
      </trkpt>
      <trkpt lat="46.01468" lon="6.76641">
        <ele>1579</ele>
        <time>2000-01-01T02:37:10.000Z</time>
      </trkpt>
      <trkpt lat="46.01464" lon="6.76657">
        <ele>1562.6</ele>
        <time>2000-01-01T02:37:20.000Z</time>
      </trkpt>
      <trkpt lat="46.01472" lon="6.76665">
        <ele>1587</ele>
        <time>2000-01-01T02:37:30.000Z</time>
      </trkpt>
      <trkpt lat="46.01473" lon="6.76677">
        <ele>1584.7</ele>
        <time>2000-01-01T02:37:40.000Z</time>
      </trkpt>
      <trkpt lat="46.01468" lon="6.76695">
        <ele>1597</ele>
        <time>2000-01-01T02:37:50.000Z</time>
      </trkpt>
      <trkpt lat="46.01462" lon="6.76696">
        <ele>1589.1</ele>
        <time>2000-01-01T02:38:00.000Z</time>
      </trkpt>
      <trkpt lat="46.01476" lon="6.76714">
        <ele>1601</ele>
        <time>2000-01-01T02:38:10.000Z</time>
      </trkpt>
      <trkpt lat="46.01478" lon="6.76731">
        <ele>1593.9</ele>
        <time>2000-01-01T02:38:20.000Z</time>
      </trkpt>
      <trkpt lat="46.01484" lon="6.76744">
        <ele>1608</ele>
        <time>2000-01-01T02:38:30.000Z</time>
      </trkpt>
      <trkpt lat="46.01493" lon="6.7675">
        <ele>1599.3</ele>
        <time>2000-01-01T02:38:40.000Z</time>
      </trkpt>
      <trkpt lat="46.01498" lon="6.76765">
        <ele>1612</ele>
        <time>2000-01-01T02:38:50.000Z</time>
      </trkpt>
      <trkpt lat="46.01503" lon="6.76792">
        <ele>1616</ele>
        <time>2000-01-01T02:39:00.000Z</time>
      </trkpt>
      <trkpt lat="46.01498" lon="6.76799">
        <ele>1617.9</ele>
        <time>2000-01-01T02:39:10.000Z</time>
      </trkpt>
      <trkpt lat="46.01486" lon="6.76803">
        <ele>1622</ele>
        <time>2000-01-01T02:39:20.000Z</time>
      </trkpt>
      <trkpt lat="46.01479" lon="6.76816">
        <ele>1621.3</ele>
        <time>2000-01-01T02:39:30.000Z</time>
      </trkpt>
      <trkpt lat="46.01478" lon="6.76832">
        <ele>1632</ele>
        <time>2000-01-01T02:39:40.000Z</time>
      </trkpt>
      <trkpt lat="46.01486" lon="6.76845">
        <ele>1635.5</ele>
        <time>2000-01-01T02:39:50.000Z</time>
      </trkpt>
      <trkpt lat="46.01494" lon="6.76885">
        <ele>1642</ele>
        <time>2000-01-01T02:40:00.000Z</time>
      </trkpt>
      <trkpt lat="46.01503" lon="6.76919">
        <ele>1647</ele>
        <time>2000-01-01T02:40:10.000Z</time>
      </trkpt>
      <trkpt lat="46.01514" lon="6.76958">
        <ele>1655</ele>
        <time>2000-01-01T02:40:20.000Z</time>
      </trkpt>
      <trkpt lat="46.01516" lon="6.76979">
        <ele>1655.5</ele>
        <time>2000-01-01T02:40:30.000Z</time>
      </trkpt>
      <trkpt lat="46.01523" lon="6.76994">
        <ele>1665</ele>
        <time>2000-01-01T02:40:40.000Z</time>
      </trkpt>
      <trkpt lat="46.01528" lon="6.77001">
        <ele>1671.6</ele>
        <time>2000-01-01T02:40:50.000Z</time>
      </trkpt>
      <trkpt lat="46.01523" lon="6.77011">
        <ele>1672.8</ele>
        <time>2000-01-01T02:41:00.000Z</time>
      </trkpt>
      <trkpt lat="46.01529" lon="6.77023">
        <ele>1673</ele>
        <time>2000-01-01T02:41:10.000Z</time>
      </trkpt>
      <trkpt lat="46.01526" lon="6.77039">
        <ele>1675.6</ele>
        <time>2000-01-01T02:41:20.000Z</time>
      </trkpt>
      <trkpt lat="46.01521" lon="6.7705">
        <ele>1678</ele>
        <time>2000-01-01T02:41:30.000Z</time>
      </trkpt>
      <trkpt lat="46.01529" lon="6.77071">
        <ele>1680.8</ele>
        <time>2000-01-01T02:41:40.000Z</time>
      </trkpt>
      <trkpt lat="46.01535" lon="6.7708">
        <ele>1683</ele>
        <time>2000-01-01T02:41:50.000Z</time>
      </trkpt>
      <trkpt lat="46.01546" lon="6.77082">
        <ele>1678.4</ele>
        <time>2000-01-01T02:42:00.000Z</time>
      </trkpt>
      <trkpt lat="46.0156" lon="6.77094">
        <ele>1686</ele>
        <time>2000-01-01T02:42:10.000Z</time>
      </trkpt>
      <trkpt lat="46.0157" lon="6.77118">
        <ele>1687</ele>
        <time>2000-01-01T02:42:20.000Z</time>
      </trkpt>
      <trkpt lat="46.01578" lon="6.77113">
        <ele>1694.8</ele>
        <time>2000-01-01T02:42:30.000Z</time>
      </trkpt>
      <trkpt lat="46.01588" lon="6.77126">
        <ele>1689</ele>
        <time>2000-01-01T02:42:40.000Z</time>
      </trkpt>
      <trkpt lat="46.01598" lon="6.77134">
        <ele>1674.9</ele>
        <time>2000-01-01T02:42:50.000Z</time>
      </trkpt>
      <trkpt lat="46.01612" lon="6.77149">
        <ele>1693</ele>
        <time>2000-01-01T02:43:00.000Z</time>
      </trkpt>
      <trkpt lat="46.01621" lon="6.77162">
        <ele>1672.3</ele>
        <time>2000-01-01T02:43:10.000Z</time>
      </trkpt>
      <trkpt lat="46.01623" lon="6.77175">
        <ele>1699</ele>
        <time>2000-01-01T02:43:20.000Z</time>
      </trkpt>
      <trkpt lat="46.01629" lon="6.77191">
        <ele>1691.6</ele>
        <time>2000-01-01T02:43:30.000Z</time>
      </trkpt>
      <trkpt lat="46.01632" lon="6.77207">
        <ele>1705</ele>
        <time>2000-01-01T02:43:40.000Z</time>
      </trkpt>
      <trkpt lat="46.01629" lon="6.77233">
        <ele>1698.8</ele>
        <time>2000-01-01T02:43:50.000Z</time>
      </trkpt>
      <trkpt lat="46.01632" lon="6.77245">
        <ele>1715</ele>
        <time>2000-01-01T02:44:00.000Z</time>
      </trkpt>
      <trkpt lat="46.01631" lon="6.77255">
        <ele>1715.9</ele>
        <time>2000-01-01T02:44:10.000Z</time>
      </trkpt>
      <trkpt lat="46.01627" lon="6.77264">
        <ele>1717.7</ele>
        <time>2000-01-01T02:44:20.000Z</time>
      </trkpt>
      <trkpt lat="46.01619" lon="6.77266">
        <ele>1726</ele>
        <time>2000-01-01T02:44:30.000Z</time>
      </trkpt>
      <trkpt lat="46.01619" lon="6.77278">
        <ele>1721</ele>
        <time>2000-01-01T02:44:40.000Z</time>
      </trkpt>
      <trkpt lat="46.01613" lon="6.77294">
        <ele>1728</ele>
        <time>2000-01-01T02:44:50.000Z</time>
      </trkpt>
      <trkpt lat="46.01626" lon="6.77301">
        <ele>1722.5</ele>
        <time>2000-01-01T02:45:00.000Z</time>
      </trkpt>
      <trkpt lat="46.01629" lon="6.77319">
        <ele>1731</ele>
        <time>2000-01-01T02:45:10.000Z</time>
      </trkpt>
      <trkpt lat="46.01638" lon="6.77364">
        <ele>1741</ele>
        <time>2000-01-01T02:45:20.000Z</time>
      </trkpt>
      <trkpt lat="46.01636" lon="6.77387">
        <ele>1742.9</ele>
        <time>2000-01-01T02:45:30.000Z</time>
      </trkpt>
      <trkpt lat="46.01645" lon="6.77406">
        <ele>1745</ele>
        <time>2000-01-01T02:45:40.000Z</time>
      </trkpt>
      <trkpt lat="46.01657" lon="6.77426">
        <ele>1747.6</ele>
        <time>2000-01-01T02:45:50.000Z</time>
      </trkpt>
      <trkpt lat="46.01656" lon="6.77444">
        <ele>1751</ele>
        <time>2000-01-01T02:46:00.000Z</time>
      </trkpt>
      <trkpt lat="46.01657" lon="6.77472">
        <ele>1757</ele>
        <time>2000-01-01T02:46:10.000Z</time>
      </trkpt>
      <trkpt lat="46.01665" lon="6.77491">
        <ele>1758.8</ele>
        <time>2000-01-01T02:46:20.000Z</time>
      </trkpt>
      <trkpt lat="46.0167" lon="6.77517">
        <ele>1761</ele>
        <time>2000-01-01T02:46:30.000Z</time>
      </trkpt>
      <trkpt lat="46.01672" lon="6.77541">
        <ele>1744.6</ele>
        <time>2000-01-01T02:46:40.000Z</time>
      </trkpt>
      <trkpt lat="46.01679" lon="6.77569">
        <ele>1766</ele>
        <time>2000-01-01T02:46:50.000Z</time>
      </trkpt>
      <trkpt lat="46.01688" lon="6.77592">
        <ele>1758.4</ele>
        <time>2000-01-01T02:47:00.000Z</time>
      </trkpt>
      <trkpt lat="46.01692" lon="6.77615">
        <ele>1767</ele>
        <time>2000-01-01T02:47:10.000Z</time>
      </trkpt>
      <trkpt lat="46.01689" lon="6.7764">
        <ele>1757.7</ele>
        <time>2000-01-01T02:47:20.000Z</time>
      </trkpt>
      <trkpt lat="46.0168" lon="6.77669">
        <ele>1771</ele>
        <time>2000-01-01T02:47:30.000Z</time>
      </trkpt>
      <trkpt lat="46.01676" lon="6.77703">
        <ele>1775</ele>
        <time>2000-01-01T02:47:40.000Z</time>
      </trkpt>
      <trkpt lat="46.01676" lon="6.77734">
        <ele>1776</ele>
        <time>2000-01-01T02:47:50.000Z</time>
      </trkpt>
      <trkpt lat="46.01667" lon="6.77771">
        <ele>1786</ele>
        <time>2000-01-01T02:48:00.000Z</time>
      </trkpt>
      <trkpt lat="46.01656" lon="6.77794">
        <ele>1791</ele>
        <time>2000-01-01T02:48:10.000Z</time>
      </trkpt>
      <trkpt lat="46.01645" lon="6.7782">
        <ele>1792</ele>
        <time>2000-01-01T02:48:20.000Z</time>
      </trkpt>
      <trkpt lat="46.0164" lon="6.77836">
        <ele>1789.5</ele>
        <time>2000-01-01T02:48:30.000Z</time>
      </trkpt>
      <trkpt lat="46.01617" lon="6.77855">
        <ele>1794</ele>
        <time>2000-01-01T02:48:40.000Z</time>
      </trkpt>
      <trkpt lat="46.01605" lon="6.77855">
        <ele>1792.7</ele>
        <time>2000-01-01T02:48:50.000Z</time>
      </trkpt>
      <trkpt lat="46.01588" lon="6.77846">
        <ele>1796</ele>
        <time>2000-01-01T02:49:00.000Z</time>
      </trkpt>
      <trkpt lat="46.0157" lon="6.77846">
        <ele>1796.2</ele>
        <time>2000-01-01T02:49:10.000Z</time>
      </trkpt>
      <trkpt lat="46.01552" lon="6.77847">
        <ele>1797</ele>
        <time>2000-01-01T02:49:20.000Z</time>
      </trkpt>
      <trkpt lat="46.01535" lon="6.77846">
        <ele>1797.4</ele>
        <time>2000-01-01T02:49:30.000Z</time>
      </trkpt>
      <trkpt lat="46.01524" lon="6.77852">
        <ele>1799</ele>
        <time>2000-01-01T02:49:40.000Z</time>
      </trkpt>
      <trkpt lat="46.01522" lon="6.77864">
        <ele>1796.9</ele>
        <time>2000-01-01T02:49:50.000Z</time>
      </trkpt>
      <trkpt lat="46.01512" lon="6.7787">
        <ele>1798</ele>
        <time>2000-01-01T02:50:00.000Z</time>
      </trkpt>
      <trkpt lat="46.01497" lon="6.7787">
        <ele>1796.3</ele>
        <time>2000-01-01T02:50:10.000Z</time>
      </trkpt>
      <trkpt lat="46.01483" lon="6.77889">
        <ele>1798</ele>
        <time>2000-01-01T02:50:20.000Z</time>
      </trkpt>
      <trkpt lat="46.01471" lon="6.77903">
        <ele>1792.2</ele>
        <time>2000-01-01T02:50:30.000Z</time>
      </trkpt>
      <trkpt lat="46.01459" lon="6.779">
        <ele>1796</ele>
        <time>2000-01-01T02:50:40.000Z</time>
      </trkpt>
      <trkpt lat="46.01436" lon="6.77898">
        <ele>1790</ele>
        <time>2000-01-01T02:50:50.000Z</time>
      </trkpt>
      <trkpt lat="46.01421" lon="6.77898">
        <ele>1788.1</ele>
        <time>2000-01-01T02:51:00.000Z</time>
      </trkpt>
      <trkpt lat="46.01395" lon="6.77903">
        <ele>1776</ele>
        <time>2000-01-01T02:51:10.000Z</time>
      </trkpt>
      <trkpt lat="46.0139" lon="6.77902">
        <ele>1782.9</ele>
        <time>2000-01-01T02:51:20.000Z</time>
      </trkpt>
      <trkpt lat="46.0138" lon="6.77893">
        <ele>1783.5</ele>
        <time>2000-01-01T02:51:30.000Z</time>
      </trkpt>
      <trkpt lat="46.01369" lon="6.77893">
        <ele>1774</ele>
        <time>2000-01-01T02:51:40.000Z</time>
      </trkpt>
      <trkpt lat="46.01357" lon="6.77897">
        <ele>1780</ele>
        <time>2000-01-01T02:51:50.000Z</time>
      </trkpt>
      <trkpt lat="46.01343" lon="6.77897">
        <ele>1769</ele>
        <time>2000-01-01T02:52:00.000Z</time>
      </trkpt>
      <trkpt lat="46.01338" lon="6.77895">
        <ele>1777.6</ele>
        <time>2000-01-01T02:52:10.000Z</time>
      </trkpt>
      <trkpt lat="46.0133" lon="6.77905">
        <ele>1771.5</ele>
        <time>2000-01-01T02:52:20.000Z</time>
      </trkpt>
      <trkpt lat="46.01316" lon="6.77913">
        <ele>1765</ele>
        <time>2000-01-01T02:52:30.000Z</time>
      </trkpt>
      <trkpt lat="46.01305" lon="6.77925">
        <ele>1763.3</ele>
        <time>2000-01-01T02:52:40.000Z</time>
      </trkpt>
      <trkpt lat="46.01298" lon="6.77937">
        <ele>1762</ele>
        <time>2000-01-01T02:52:50.000Z</time>
      </trkpt>
      <trkpt lat="46.01296" lon="6.77953">
        <ele>1761.4</ele>
        <time>2000-01-01T02:53:00.000Z</time>
      </trkpt>
      <trkpt lat="46.01288" lon="6.77959">
        <ele>1759</ele>
        <time>2000-01-01T02:53:10.000Z</time>
      </trkpt>
      <trkpt lat="46.0128" lon="6.77985">
        <ele>1754</ele>
        <time>2000-01-01T02:53:20.000Z</time>
      </trkpt>
      <trkpt lat="46.01269" lon="6.78">
        <ele>1752</ele>
        <time>2000-01-01T02:53:30.000Z</time>
      </trkpt>
      <trkpt lat="46.01268" lon="6.7802">
        <ele>1748</ele>
        <time>2000-01-01T02:53:40.000Z</time>
      </trkpt>
      <trkpt lat="46.01257" lon="6.78037">
        <ele>1749.9</ele>
        <time>2000-01-01T02:53:50.000Z</time>
      </trkpt>
      <trkpt lat="46.01242" lon="6.7805">
        <ele>1744</ele>
        <time>2000-01-01T02:54:00.000Z</time>
      </trkpt>
      <trkpt lat="46.01204" lon="6.78089">
        <ele>1743</ele>
        <time>2000-01-01T02:54:10.000Z</time>
      </trkpt>
      <trkpt lat="46.01191" lon="6.78097">
        <ele>1746.3</ele>
        <time>2000-01-01T02:54:20.000Z</time>
      </trkpt>
      <trkpt lat="46.01183" lon="6.78117">
        <ele>1743</ele>
        <time>2000-01-01T02:54:30.000Z</time>
      </trkpt>
      <trkpt lat="46.01166" lon="6.7813">
        <ele>1744</ele>
        <time>2000-01-01T02:54:40.000Z</time>
      </trkpt>
      <trkpt lat="46.01147" lon="6.78135">
        <ele>1744</ele>
        <time>2000-01-01T02:54:50.000Z</time>
      </trkpt>
      <trkpt lat="46.01133" lon="6.78152">
        <ele>1751.7</ele>
        <time>2000-01-01T02:55:00.000Z</time>
      </trkpt>
      <trkpt lat="46.01124" lon="6.78161">
        <ele>1748</ele>
        <time>2000-01-01T02:55:10.000Z</time>
      </trkpt>
      <trkpt lat="46.0111" lon="6.782">
        <ele>1751</ele>
        <time>2000-01-01T02:55:20.000Z</time>
      </trkpt>
      <trkpt lat="46.01096" lon="6.78203">
        <ele>1750.9</ele>
        <time>2000-01-01T02:55:30.000Z</time>
      </trkpt>
      <trkpt lat="46.01078" lon="6.78229">
        <ele>1751</ele>
        <time>2000-01-01T02:55:40.000Z</time>
      </trkpt>
      <trkpt lat="46.01068" lon="6.78236">
        <ele>1754.3</ele>
        <time>2000-01-01T02:55:50.000Z</time>
      </trkpt>
      <trkpt lat="46.01054" lon="6.78257">
        <ele>1751</ele>
        <time>2000-01-01T02:56:00.000Z</time>
      </trkpt>
      <trkpt lat="46.01041" lon="6.78264">
        <ele>1752.4</ele>
        <time>2000-01-01T02:56:10.000Z</time>
      </trkpt>
      <trkpt lat="46.01019" lon="6.7832">
        <ele>1746</ele>
        <time>2000-01-01T02:56:20.000Z</time>
      </trkpt>
      <trkpt lat="46.01001" lon="6.78342">
        <ele>1746</ele>
        <time>2000-01-01T02:56:30.000Z</time>
      </trkpt>
      <trkpt lat="46.01002" lon="6.78356">
        <ele>1752.9</ele>
        <time>2000-01-01T02:56:40.000Z</time>
      </trkpt>
      <trkpt lat="46.00982" lon="6.78362">
        <ele>1747</ele>
        <time>2000-01-01T02:56:50.000Z</time>
      </trkpt>
      <trkpt lat="46.00969" lon="6.78367">
        <ele>1753.2</ele>
        <time>2000-01-01T02:57:00.000Z</time>
      </trkpt>
      <trkpt lat="46.00951" lon="6.78364">
        <ele>1747</ele>
        <time>2000-01-01T02:57:10.000Z</time>
      </trkpt>
      <trkpt lat="46.00931" lon="6.78362">
        <ele>1747</ele>
        <time>2000-01-01T02:57:20.000Z</time>
      </trkpt>
      <trkpt lat="46.00908" lon="6.78363">
        <ele>1748</ele>
        <time>2000-01-01T02:57:30.000Z</time>
      </trkpt>
      <trkpt lat="46.00893" lon="6.7836">
        <ele>1755.7</ele>
        <time>2000-01-01T02:57:40.000Z</time>
      </trkpt>
      <trkpt lat="46.00879" lon="6.78355">
        <ele>1752</ele>
        <time>2000-01-01T02:57:50.000Z</time>
      </trkpt>
      <trkpt lat="46.0086" lon="6.78363">
        <ele>1752</ele>
        <time>2000-01-01T02:58:00.000Z</time>
      </trkpt>
      <trkpt lat="46.0084" lon="6.78376">
        <ele>1752</ele>
        <time>2000-01-01T02:58:10.000Z</time>
      </trkpt>
      <trkpt lat="46.00823" lon="6.78397">
        <ele>1753</ele>
        <time>2000-01-01T02:58:20.000Z</time>
      </trkpt>
      <trkpt lat="46.00812" lon="6.78404">
        <ele>1760.7</ele>
        <time>2000-01-01T02:58:30.000Z</time>
      </trkpt>
      <trkpt lat="46.00794" lon="6.78412">
        <ele>1756</ele>
        <time>2000-01-01T02:58:40.000Z</time>
      </trkpt>
      <trkpt lat="46.00781" lon="6.78415">
        <ele>1760.2</ele>
        <time>2000-01-01T02:58:50.000Z</time>
      </trkpt>
      <trkpt lat="46.00763" lon="6.78424">
        <ele>1757</ele>
        <time>2000-01-01T02:59:00.000Z</time>
      </trkpt>
      <trkpt lat="46.00753" lon="6.78442">
        <ele>1764.3</ele>
        <time>2000-01-01T02:59:10.000Z</time>
      </trkpt>
      <trkpt lat="46.00733" lon="6.78447">
        <ele>1760</ele>
        <time>2000-01-01T02:59:20.000Z</time>
      </trkpt>
      <trkpt lat="46.00711" lon="6.78473">
        <ele>1765</ele>
        <time>2000-01-01T02:59:30.000Z</time>
      </trkpt>
      <trkpt lat="46.00702" lon="6.78485">
        <ele>1766.4</ele>
        <time>2000-01-01T02:59:40.000Z</time>
      </trkpt>
      <trkpt lat="46.00699" lon="6.78499">
        <ele>1767</ele>
        <time>2000-01-01T02:59:50.000Z</time>
      </trkpt>
      <trkpt lat="46.00699" lon="6.78511">
        <ele>1773.4</ele>
        <time>2000-01-01T03:00:00.000Z</time>
      </trkpt>
      <trkpt lat="46.00695" lon="6.78525">
        <ele>1770</ele>
        <time>2000-01-01T03:00:10.000Z</time>
      </trkpt>
      <trkpt lat="46.00704" lon="6.78544">
        <ele>1775.5</ele>
        <time>2000-01-01T03:00:20.000Z</time>
      </trkpt>
      <trkpt lat="46.00709" lon="6.78557">
        <ele>1775</ele>
        <time>2000-01-01T03:00:30.000Z</time>
      </trkpt>
      <trkpt lat="46.00724" lon="6.78568">
        <ele>1776.7</ele>
        <time>2000-01-01T03:00:40.000Z</time>
      </trkpt>
      <trkpt lat="46.00729" lon="6.78588">
        <ele>1778</ele>
        <time>2000-01-01T03:00:50.000Z</time>
      </trkpt>
      <trkpt lat="46.00726" lon="6.78614">
        <ele>1785.3</ele>
        <time>2000-01-01T03:01:00.000Z</time>
      </trkpt>
      <trkpt lat="46.00718" lon="6.78625">
        <ele>1783</ele>
        <time>2000-01-01T03:01:10.000Z</time>
      </trkpt>
      <trkpt lat="46.00705" lon="6.78627">
        <ele>1786.7</ele>
        <time>2000-01-01T03:01:20.000Z</time>
      </trkpt>
      <trkpt lat="46.00693" lon="6.78637">
        <ele>1788</ele>
        <time>2000-01-01T03:01:30.000Z</time>
      </trkpt>
      <trkpt lat="46.00677" lon="6.78633">
        <ele>1787.7</ele>
        <time>2000-01-01T03:01:40.000Z</time>
      </trkpt>
      <trkpt lat="46.00661" lon="6.78638">
        <ele>1790</ele>
        <time>2000-01-01T03:01:50.000Z</time>
      </trkpt>
      <trkpt lat="46.00646" lon="6.78651">
        <ele>1790.2</ele>
        <time>2000-01-01T03:02:00.000Z</time>
      </trkpt>
      <trkpt lat="46.00638" lon="6.78672">
        <ele>1794</ele>
        <time>2000-01-01T03:02:10.000Z</time>
      </trkpt>
      <trkpt lat="46.00615" lon="6.787">
        <ele>1795</ele>
        <time>2000-01-01T03:02:20.000Z</time>
      </trkpt>
      <trkpt lat="46.00598" lon="6.78724">
        <ele>1795</ele>
        <time>2000-01-01T03:02:30.000Z</time>
      </trkpt>
      <trkpt lat="46.00579" lon="6.7875">
        <ele>1795</ele>
        <time>2000-01-01T03:02:40.000Z</time>
      </trkpt>
      <trkpt lat="46.00569" lon="6.7877">
        <ele>1797.9</ele>
        <time>2000-01-01T03:02:50.000Z</time>
      </trkpt>
      <trkpt lat="46.00562" lon="6.78789">
        <ele>1795</ele>
        <time>2000-01-01T03:03:00.000Z</time>
      </trkpt>
      <trkpt lat="46.00549" lon="6.78817">
        <ele>1796</ele>
        <time>2000-01-01T03:03:10.000Z</time>
      </trkpt>
      <trkpt lat="46.00539" lon="6.78834">
        <ele>1801</ele>
        <time>2000-01-01T03:03:20.000Z</time>
      </trkpt>
      <trkpt lat="46.00519" lon="6.78846">
        <ele>1798</ele>
        <time>2000-01-01T03:03:30.000Z</time>
      </trkpt>
      <trkpt lat="46.00519" lon="6.78863">
        <ele>1801.2</ele>
        <time>2000-01-01T03:03:40.000Z</time>
      </trkpt>
      <trkpt lat="46.00512" lon="6.78866">
        <ele>1798</ele>
        <time>2000-01-01T03:03:50.000Z</time>
      </trkpt>
      <trkpt lat="46.00505" lon="6.78887">
        <ele>1801.5</ele>
        <time>2000-01-01T03:04:00.000Z</time>
      </trkpt>
      <trkpt lat="46.00493" lon="6.7891">
        <ele>1799</ele>
        <time>2000-01-01T03:04:10.000Z</time>
      </trkpt>
      <trkpt lat="46.00486" lon="6.78927">
        <ele>1802.8</ele>
        <time>2000-01-01T03:04:20.000Z</time>
      </trkpt>
      <trkpt lat="46.00484" lon="6.78941">
        <ele>1800</ele>
        <time>2000-01-01T03:04:30.000Z</time>
      </trkpt>
      <trkpt lat="46.00477" lon="6.78957">
        <ele>1803.3</ele>
        <time>2000-01-01T03:04:40.000Z</time>
      </trkpt>
      <trkpt lat="46.0048" lon="6.78976">
        <ele>1802</ele>
        <time>2000-01-01T03:04:50.000Z</time>
      </trkpt>
      <trkpt lat="46.00484" lon="6.7901">
        <ele>1802</ele>
        <time>2000-01-01T03:05:00.000Z</time>
      </trkpt>
      <trkpt lat="46.00488" lon="6.79044">
        <ele>1803</ele>
        <time>2000-01-01T03:05:10.000Z</time>
      </trkpt>
      <trkpt lat="46.00482" lon="6.79081">
        <ele>1804</ele>
        <time>2000-01-01T03:05:20.000Z</time>
      </trkpt>
      <trkpt lat="46.00476" lon="6.79105">
        <ele>1809</ele>
        <time>2000-01-01T03:05:30.000Z</time>
      </trkpt>
      <trkpt lat="46.00466" lon="6.79131">
        <ele>1805</ele>
        <time>2000-01-01T03:05:40.000Z</time>
      </trkpt>
      <trkpt lat="46.00456" lon="6.7915">
        <ele>1810.7</ele>
        <time>2000-01-01T03:05:50.000Z</time>
      </trkpt>
      <trkpt lat="46.00447" lon="6.79176">
        <ele>1808</ele>
        <time>2000-01-01T03:06:00.000Z</time>
      </trkpt>
      <trkpt lat="46.00442" lon="6.79193">
        <ele>1819</ele>
        <time>2000-01-01T03:06:10.000Z</time>
      </trkpt>
      <trkpt lat="46.00429" lon="6.79201">
        <ele>1810</ele>
        <time>2000-01-01T03:06:20.000Z</time>
      </trkpt>
      <trkpt lat="46.00413" lon="6.79204">
        <ele>1817.6</ele>
        <time>2000-01-01T03:06:30.000Z</time>
      </trkpt>
      <trkpt lat="46.00396" lon="6.79217">
        <ele>1811</ele>
        <time>2000-01-01T03:06:40.000Z</time>
      </trkpt>
      <trkpt lat="46.00372" lon="6.7926">
        <ele>1811</ele>
        <time>2000-01-01T03:06:50.000Z</time>
      </trkpt>
      <trkpt lat="46.00365" lon="6.79259">
        <ele>1827.1</ele>
        <time>2000-01-01T03:07:00.000Z</time>
      </trkpt>
      <trkpt lat="46.00357" lon="6.79239">
        <ele>1812</ele>
        <time>2000-01-01T03:07:10.000Z</time>
      </trkpt>
      <trkpt lat="46.00353" lon="6.79246">
        <ele>1820.1</ele>
        <time>2000-01-01T03:07:20.000Z</time>
      </trkpt>
      <trkpt lat="46.0035" lon="6.79266">
        <ele>1817</ele>
        <time>2000-01-01T03:07:30.000Z</time>
      </trkpt>
      <trkpt lat="46.0034" lon="6.79268">
        <ele>1826.3</ele>
        <time>2000-01-01T03:07:40.000Z</time>
      </trkpt>
      <trkpt lat="46.00332" lon="6.79268">
        <ele>1833.5</ele>
        <time>2000-01-01T03:07:50.000Z</time>
      </trkpt>
      <trkpt lat="46.00337" lon="6.79283">
        <ele>1823</ele>
        <time>2000-01-01T03:08:00.000Z</time>
      </trkpt>
      <trkpt lat="46.00327" lon="6.79284">
        <ele>1838.6</ele>
        <time>2000-01-01T03:08:10.000Z</time>
      </trkpt>
      <trkpt lat="46.00311" lon="6.79278">
        <ele>1829</ele>
        <time>2000-01-01T03:08:20.000Z</time>
      </trkpt>
      <trkpt lat="46.00299" lon="6.79275">
        <ele>1842.4</ele>
        <time>2000-01-01T03:08:30.000Z</time>
      </trkpt>
      <trkpt lat="46.0029" lon="6.79266">
        <ele>1840</ele>
        <time>2000-01-01T03:08:40.000Z</time>
      </trkpt>
      <trkpt lat="46.00277" lon="6.79257">
        <ele>1846.3</ele>
        <time>2000-01-01T03:08:50.000Z</time>
      </trkpt>
      <trkpt lat="46.00259" lon="6.79251">
        <ele>1850</ele>
        <time>2000-01-01T03:09:00.000Z</time>
      </trkpt>
      <trkpt lat="46.00247" lon="6.79242">
        <ele>1854.7</ele>
        <time>2000-01-01T03:09:10.000Z</time>
      </trkpt>
      <trkpt lat="46.00234" lon="6.79238">
        <ele>1854</ele>
        <time>2000-01-01T03:09:20.000Z</time>
      </trkpt>
      <trkpt lat="46.00221" lon="6.79239">
        <ele>1860.8</ele>
        <time>2000-01-01T03:09:30.000Z</time>
      </trkpt>
      <trkpt lat="46.00213" lon="6.79245">
        <ele>1864</ele>
        <time>2000-01-01T03:09:40.000Z</time>
      </trkpt>
      <trkpt lat="46.0021" lon="6.79231">
        <ele>1863.3</ele>
        <time>2000-01-01T03:09:50.000Z</time>
      </trkpt>
      <trkpt lat="46.00205" lon="6.79221">
        <ele>1864</ele>
        <time>2000-01-01T03:10:00.000Z</time>
      </trkpt>
      <trkpt lat="46.00197" lon="6.7922">
        <ele>1865.6</ele>
        <time>2000-01-01T03:10:10.000Z</time>
      </trkpt>
      <trkpt lat="46.00196" lon="6.79236">
        <ele>1873</ele>
        <time>2000-01-01T03:10:20.000Z</time>
      </trkpt>
      <trkpt lat="46.00186" lon="6.79232">
        <ele>1870.3</ele>
        <time>2000-01-01T03:10:30.000Z</time>
      </trkpt>
      <trkpt lat="46.00192" lon="6.79267">
        <ele>1880</ele>
        <time>2000-01-01T03:10:40.000Z</time>
      </trkpt>
      <trkpt lat="46.00195" lon="6.79298">
        <ele>1888</ele>
        <time>2000-01-01T03:10:50.000Z</time>
      </trkpt>
      <trkpt lat="46.00204" lon="6.79329">
        <ele>1891</ele>
        <time>2000-01-01T03:11:00.000Z</time>
      </trkpt>
      <trkpt lat="46.00208" lon="6.79362">
        <ele>1901</ele>
        <time>2000-01-01T03:11:10.000Z</time>
      </trkpt>
      <trkpt lat="46.00217" lon="6.79389">
        <ele>1908</ele>
        <time>2000-01-01T03:11:20.000Z</time>
      </trkpt>
      <trkpt lat="46.00219" lon="6.79414">
        <ele>1902.6</ele>
        <time>2000-01-01T03:11:30.000Z</time>
      </trkpt>
      <trkpt lat="46.00215" lon="6.79432">
        <ele>1920</ele>
        <time>2000-01-01T03:11:40.000Z</time>
      </trkpt>
      <trkpt lat="46.00217" lon="6.79445">
        <ele>1919.6</ele>
        <time>2000-01-01T03:11:50.000Z</time>
      </trkpt>
      <trkpt lat="46.00218" lon="6.79485">
        <ele>1931</ele>
        <time>2000-01-01T03:12:00.000Z</time>
      </trkpt>
      <trkpt lat="46.0022" lon="6.79514">
        <ele>1936</ele>
        <time>2000-01-01T03:12:10.000Z</time>
      </trkpt>
      <trkpt lat="46.00212" lon="6.79561">
        <ele>1945</ele>
        <time>2000-01-01T03:12:20.000Z</time>
      </trkpt>
      <trkpt lat="46.00212" lon="6.7958">
        <ele>1946.6</ele>
        <time>2000-01-01T03:12:30.000Z</time>
      </trkpt>
      <trkpt lat="46.00199" lon="6.79576">
        <ele>1960</ele>
        <time>2000-01-01T03:12:40.000Z</time>
      </trkpt>
      <trkpt lat="46.00203" lon="6.79605">
        <ele>1960</ele>
        <time>2000-01-01T03:12:50.000Z</time>
      </trkpt>
      <trkpt lat="46.00194" lon="6.79637">
        <ele>1971</ele>
        <time>2000-01-01T03:13:00.000Z</time>
      </trkpt>
      <trkpt lat="46.0021" lon="6.79674">
        <ele>1975</ele>
        <time>2000-01-01T03:13:10.000Z</time>
      </trkpt>
      <trkpt lat="46.00218" lon="6.79697">
        <ele>1977.3</ele>
        <time>2000-01-01T03:13:20.000Z</time>
      </trkpt>
      <trkpt lat="46.0022" lon="6.79716">
        <ele>1982</ele>
        <time>2000-01-01T03:13:30.000Z</time>
      </trkpt>
      <trkpt lat="46.00217" lon="6.79743">
        <ele>1989</ele>
        <time>2000-01-01T03:13:40.000Z</time>
      </trkpt>
      <trkpt lat="46.00205" lon="6.79734">
        <ele>1984.3</ele>
        <time>2000-01-01T03:13:50.000Z</time>
      </trkpt>
      <trkpt lat="46.00192" lon="6.79734">
        <ele>1993</ele>
        <time>2000-01-01T03:14:00.000Z</time>
      </trkpt>
      <trkpt lat="46.00177" lon="6.79722">
        <ele>1988.7</ele>
        <time>2000-01-01T03:14:10.000Z</time>
      </trkpt>
      <trkpt lat="46.00149" lon="6.7973">
        <ele>2006</ele>
        <time>2000-01-01T03:14:20.000Z</time>
      </trkpt>
      <trkpt lat="46.00164" lon="6.79769">
        <ele>2012</ele>
        <time>2000-01-01T03:14:30.000Z</time>
      </trkpt>
      <trkpt lat="46.00168" lon="6.79804">
        <ele>2022</ele>
        <time>2000-01-01T03:14:40.000Z</time>
      </trkpt>
      <trkpt lat="46.00156" lon="6.79801">
        <ele>2025.1</ele>
        <time>2000-01-01T03:14:50.000Z</time>
      </trkpt>
      <trkpt lat="46.00125" lon="6.79796">
        <ele>2034</ele>
        <time>2000-01-01T03:15:00.000Z</time>
      </trkpt>
      <trkpt lat="46.00121" lon="6.79809">
        <ele>2032.5</ele>
        <time>2000-01-01T03:15:10.000Z</time>
      </trkpt>
      <trkpt lat="46.00124" lon="6.79828">
        <ele>2043</ele>
        <time>2000-01-01T03:15:20.000Z</time>
      </trkpt>
      <trkpt lat="46.00108" lon="6.79835">
        <ele>2046.9</ele>
        <time>2000-01-01T03:15:30.000Z</time>
      </trkpt>
      <trkpt lat="46.00102" lon="6.79849">
        <ele>2053</ele>
        <time>2000-01-01T03:15:40.000Z</time>
      </trkpt>
      <trkpt lat="46.00079" lon="6.79852">
        <ele>2062</ele>
        <time>2000-01-01T03:15:50.000Z</time>
      </trkpt>
      <trkpt lat="46.00058" lon="6.7985">
        <ele>2068</ele>
        <time>2000-01-01T03:16:00.000Z</time>
      </trkpt>
      <trkpt lat="46.00038" lon="6.79842">
        <ele>2076</ele>
        <time>2000-01-01T03:16:10.000Z</time>
      </trkpt>
      <trkpt lat="46.00015" lon="6.79841">
        <ele>2078</ele>
        <time>2000-01-01T03:16:20.000Z</time>
      </trkpt>
      <trkpt lat="45.99989" lon="6.79848">
        <ele>2080</ele>
        <time>2000-01-01T03:16:30.000Z</time>
      </trkpt>
      <trkpt lat="45.99977" lon="6.7986">
        <ele>2083.8</ele>
        <time>2000-01-01T03:16:40.000Z</time>
      </trkpt>
      <trkpt lat="45.99958" lon="6.7987">
        <ele>2082</ele>
        <time>2000-01-01T03:16:50.000Z</time>
      </trkpt>
      <trkpt lat="45.9995" lon="6.79882">
        <ele>2085.5</ele>
        <time>2000-01-01T03:17:00.000Z</time>
      </trkpt>
      <trkpt lat="45.99935" lon="6.79897">
        <ele>2084</ele>
        <time>2000-01-01T03:17:10.000Z</time>
      </trkpt>
      <trkpt lat="45.9992" lon="6.79919">
        <ele>2085</ele>
        <time>2000-01-01T03:17:20.000Z</time>
      </trkpt>
      <trkpt lat="45.9991" lon="6.79932">
        <ele>2099.5</ele>
        <time>2000-01-01T03:17:30.000Z</time>
      </trkpt>
      <trkpt lat="45.99897" lon="6.79928">
        <ele>2089</ele>
        <time>2000-01-01T03:17:40.000Z</time>
      </trkpt>
      <trkpt lat="45.99883" lon="6.79933">
        <ele>2105.2</ele>
        <time>2000-01-01T03:17:50.000Z</time>
      </trkpt>
      <trkpt lat="45.99868" lon="6.79925">
        <ele>2097</ele>
        <time>2000-01-01T03:18:00.000Z</time>
      </trkpt>
      <trkpt lat="45.99856" lon="6.79907">
        <ele>2100.1</ele>
        <time>2000-01-01T03:18:10.000Z</time>
      </trkpt>
      <trkpt lat="45.99838" lon="6.79886">
        <ele>2102</ele>
        <time>2000-01-01T03:18:20.000Z</time>
      </trkpt>
      <trkpt lat="45.99817" lon="6.79858">
        <ele>2106</ele>
        <time>2000-01-01T03:18:30.000Z</time>
      </trkpt>
      <trkpt lat="45.9981" lon="6.79819">
        <ele>2110</ele>
        <time>2000-01-01T03:18:40.000Z</time>
      </trkpt>
      <trkpt lat="45.99804" lon="6.7981">
        <ele>2100.1</ele>
        <time>2000-01-01T03:18:50.000Z</time>
      </trkpt>
      <trkpt lat="45.99789" lon="6.79803">
        <ele>2116</ele>
        <time>2000-01-01T03:19:00.000Z</time>
      </trkpt>
      <trkpt lat="45.99775" lon="6.79783">
        <ele>2116</ele>
        <time>2000-01-01T03:19:10.000Z</time>
      </trkpt>
      <trkpt lat="45.99748" lon="6.79759">
        <ele>2112</ele>
        <time>2000-01-01T03:19:20.000Z</time>
      </trkpt>
      <trkpt lat="45.99738" lon="6.79759">
        <ele>2109.9</ele>
        <time>2000-01-01T03:19:30.000Z</time>
      </trkpt>
      <trkpt lat="45.99724" lon="6.79752">
        <ele>2110</ele>
        <time>2000-01-01T03:19:40.000Z</time>
      </trkpt>
      <trkpt lat="45.9971" lon="6.7975">
        <ele>2109</ele>
        <time>2000-01-01T03:19:50.000Z</time>
      </trkpt>
      <trkpt lat="45.99705" lon="6.79768">
        <ele>2109</ele>
        <time>2000-01-01T03:20:00.000Z</time>
      </trkpt>
      <trkpt lat="45.997" lon="6.79796">
        <ele>2108</ele>
        <time>2000-01-01T03:20:10.000Z</time>
      </trkpt>
      <trkpt lat="45.99696" lon="6.79814">
        <ele>2108.8</ele>
        <time>2000-01-01T03:20:20.000Z</time>
      </trkpt>
      <trkpt lat="45.99688" lon="6.79841">
        <ele>2099</ele>
        <time>2000-01-01T03:20:30.000Z</time>
      </trkpt>
      <trkpt lat="45.9967" lon="6.79841">
        <ele>2106.4</ele>
        <time>2000-01-01T03:20:40.000Z</time>
      </trkpt>
      <trkpt lat="45.99658" lon="6.7984">
        <ele>2096</ele>
        <time>2000-01-01T03:20:50.000Z</time>
      </trkpt>
      <trkpt lat="45.99638" lon="6.79857">
        <ele>2086</ele>
        <time>2000-01-01T03:21:00.000Z</time>
      </trkpt>
      <trkpt lat="45.99624" lon="6.79863">
        <ele>2092.9</ele>
        <time>2000-01-01T03:21:10.000Z</time>
      </trkpt>
      <trkpt lat="45.99606" lon="6.79875">
        <ele>2082</ele>
        <time>2000-01-01T03:21:20.000Z</time>
      </trkpt>
      <trkpt lat="45.99583" lon="6.7988">
        <ele>2079</ele>
        <time>2000-01-01T03:21:30.000Z</time>
      </trkpt>
      <trkpt lat="45.99569" lon="6.7988">
        <ele>2078.3</ele>
        <time>2000-01-01T03:21:40.000Z</time>
      </trkpt>
      <trkpt lat="45.99552" lon="6.79889">
        <ele>2075</ele>
        <time>2000-01-01T03:21:50.000Z</time>
      </trkpt>
      <trkpt lat="45.99535" lon="6.79889">
        <ele>2076</ele>
        <time>2000-01-01T03:22:00.000Z</time>
      </trkpt>
      <trkpt lat="45.99523" lon="6.79894">
        <ele>2071</ele>
        <time>2000-01-01T03:22:10.000Z</time>
      </trkpt>
      <trkpt lat="45.99493" lon="6.79897">
        <ele>2068</ele>
        <time>2000-01-01T03:22:20.000Z</time>
      </trkpt>
      <trkpt lat="45.99463" lon="6.79904">
        <ele>2065</ele>
        <time>2000-01-01T03:22:30.000Z</time>
      </trkpt>
      <trkpt lat="45.99429" lon="6.7991">
        <ele>2064</ele>
        <time>2000-01-01T03:22:40.000Z</time>
      </trkpt>
      <trkpt lat="45.99414" lon="6.79952">
        <ele>2064</ele>
        <time>2000-01-01T03:22:50.000Z</time>
      </trkpt>
      <trkpt lat="45.99405" lon="6.79982">
        <ele>2064</ele>
        <time>2000-01-01T03:23:00.000Z</time>
      </trkpt>
      <trkpt lat="45.99385" lon="6.80004">
        <ele>2064</ele>
        <time>2000-01-01T03:23:10.000Z</time>
      </trkpt>
      <trkpt lat="45.99376" lon="6.80024">
        <ele>2075.7</ele>
        <time>2000-01-01T03:23:20.000Z</time>
      </trkpt>
      <trkpt lat="45.99361" lon="6.80032">
        <ele>2063</ele>
        <time>2000-01-01T03:23:30.000Z</time>
      </trkpt>
      <trkpt lat="45.99334" lon="6.80042">
        <ele>2062</ele>
        <time>2000-01-01T03:23:40.000Z</time>
      </trkpt>
      <trkpt lat="45.99322" lon="6.80055">
        <ele>2066.4</ele>
        <time>2000-01-01T03:23:50.000Z</time>
      </trkpt>
      <trkpt lat="45.99302" lon="6.80062">
        <ele>2062</ele>
        <time>2000-01-01T03:24:00.000Z</time>
      </trkpt>
      <trkpt lat="45.99279" lon="6.80064">
        <ele>2062</ele>
        <time>2000-01-01T03:24:10.000Z</time>
      </trkpt>
      <trkpt lat="45.99267" lon="6.80057">
        <ele>2064.6</ele>
        <time>2000-01-01T03:24:20.000Z</time>
      </trkpt>
      <trkpt lat="45.99259" lon="6.80038">
        <ele>2061</ele>
        <time>2000-01-01T03:24:30.000Z</time>
      </trkpt>
      <trkpt lat="45.99254" lon="6.8004">
        <ele>2064</ele>
        <time>2000-01-01T03:24:40.000Z</time>
      </trkpt>
      <trkpt lat="45.99254" lon="6.80066">
        <ele>2061</ele>
        <time>2000-01-01T03:24:50.000Z</time>
      </trkpt>
      <trkpt lat="45.99228" lon="6.80078">
        <ele>2061</ele>
        <time>2000-01-01T03:25:00.000Z</time>
      </trkpt>
      <trkpt lat="45.99189" lon="6.80086">
        <ele>2060</ele>
        <time>2000-01-01T03:25:10.000Z</time>
      </trkpt>
      <trkpt lat="45.99155" lon="6.80095">
        <ele>2060</ele>
        <time>2000-01-01T03:25:20.000Z</time>
      </trkpt>
      <trkpt lat="45.99121" lon="6.80105">
        <ele>2060</ele>
        <time>2000-01-01T03:25:30.000Z</time>
      </trkpt>
      <trkpt lat="45.9909" lon="6.80117">
        <ele>2059</ele>
        <time>2000-01-01T03:25:40.000Z</time>
      </trkpt>
      <trkpt lat="45.99051" lon="6.80129">
        <ele>2059</ele>
        <time>2000-01-01T03:25:50.000Z</time>
      </trkpt>
      <trkpt lat="45.99011" lon="6.80135">
        <ele>2059</ele>
        <time>2000-01-01T03:26:00.000Z</time>
      </trkpt>
      <trkpt lat="45.98984" lon="6.80123">
        <ele>2059</ele>
        <time>2000-01-01T03:26:10.000Z</time>
      </trkpt>
      <trkpt lat="45.98961" lon="6.80105">
        <ele>2059</ele>
        <time>2000-01-01T03:26:20.000Z</time>
      </trkpt>
      <trkpt lat="45.98939" lon="6.80082">
        <ele>2062</ele>
        <time>2000-01-01T03:26:30.000Z</time>
      </trkpt>
      <trkpt lat="45.98917" lon="6.80064">
        <ele>2065</ele>
        <time>2000-01-01T03:26:40.000Z</time>
      </trkpt>
      <trkpt lat="45.98893" lon="6.80044">
        <ele>2065</ele>
        <time>2000-01-01T03:26:50.000Z</time>
      </trkpt>
      <trkpt lat="45.98873" lon="6.80022">
        <ele>2066</ele>
        <time>2000-01-01T03:27:00.000Z</time>
      </trkpt>
      <trkpt lat="45.98859" lon="6.80019">
        <ele>2072.5</ele>
        <time>2000-01-01T03:27:10.000Z</time>
      </trkpt>
      <trkpt lat="45.98848" lon="6.80025">
        <ele>2074</ele>
        <time>2000-01-01T03:27:20.000Z</time>
      </trkpt>
      <trkpt lat="45.98835" lon="6.80012">
        <ele>2073.5</ele>
        <time>2000-01-01T03:27:30.000Z</time>
      </trkpt>
      <trkpt lat="45.98827" lon="6.79991">
        <ele>2075</ele>
        <time>2000-01-01T03:27:40.000Z</time>
      </trkpt>
      <trkpt lat="45.9881" lon="6.79979">
        <ele>2077</ele>
        <time>2000-01-01T03:27:50.000Z</time>
      </trkpt>
      <trkpt lat="45.98803" lon="6.79965">
        <ele>2087.8</ele>
        <time>2000-01-01T03:28:00.000Z</time>
      </trkpt>
      <trkpt lat="45.98805" lon="6.79933">
        <ele>2081</ele>
        <time>2000-01-01T03:28:10.000Z</time>
      </trkpt>
      <trkpt lat="45.98801" lon="6.79905">
        <ele>2085</ele>
        <time>2000-01-01T03:28:20.000Z</time>
      </trkpt>
      <trkpt lat="45.98779" lon="6.79942">
        <ele>2100</ele>
        <time>2000-01-01T03:28:30.000Z</time>
      </trkpt>
      <trkpt lat="45.98763" lon="6.79959">
        <ele>2106</ele>
        <time>2000-01-01T03:28:40.000Z</time>
      </trkpt>
      <trkpt lat="45.98751" lon="6.79967">
        <ele>2095.5</ele>
        <time>2000-01-01T03:28:50.000Z</time>
      </trkpt>
      <trkpt lat="45.9873" lon="6.79966">
        <ele>2116</ele>
        <time>2000-01-01T03:29:00.000Z</time>
      </trkpt>
      <trkpt lat="45.98712" lon="6.79975">
        <ele>2116</ele>
        <time>2000-01-01T03:29:10.000Z</time>
      </trkpt>
      <trkpt lat="45.98691" lon="6.79974">
        <ele>2122</ele>
        <time>2000-01-01T03:29:20.000Z</time>
      </trkpt>
      <trkpt lat="45.98672" lon="6.79976">
        <ele>2126</ele>
        <time>2000-01-01T03:29:30.000Z</time>
      </trkpt>
      <trkpt lat="45.98646" lon="6.7998">
        <ele>2129</ele>
        <time>2000-01-01T03:29:40.000Z</time>
      </trkpt>
      <trkpt lat="45.98629" lon="6.79981">
        <ele>2136</ele>
        <time>2000-01-01T03:29:50.000Z</time>
      </trkpt>
      <trkpt lat="45.98615" lon="6.79973">
        <ele>2135</ele>
        <time>2000-01-01T03:30:00.000Z</time>
      </trkpt>
      <trkpt lat="45.98607" lon="6.79952">
        <ele>2140.9</ele>
        <time>2000-01-01T03:30:10.000Z</time>
      </trkpt>
      <trkpt lat="45.98593" lon="6.79946">
        <ele>2141</ele>
        <time>2000-01-01T03:30:20.000Z</time>
      </trkpt>
      <trkpt lat="45.98575" lon="6.79928">
        <ele>2144</ele>
        <time>2000-01-01T03:30:30.000Z</time>
      </trkpt>
      <trkpt lat="45.98567" lon="6.79914">
        <ele>2153.5</ele>
        <time>2000-01-01T03:30:40.000Z</time>
      </trkpt>
      <trkpt lat="45.9856" lon="6.79892">
        <ele>2146</ele>
        <time>2000-01-01T03:30:50.000Z</time>
      </trkpt>
      <trkpt lat="45.9855" lon="6.79843">
        <ele>2151</ele>
        <time>2000-01-01T03:31:00.000Z</time>
      </trkpt>
      <trkpt lat="45.9854" lon="6.79829">
        <ele>2166.3</ele>
        <time>2000-01-01T03:31:10.000Z</time>
      </trkpt>
      <trkpt lat="45.98526" lon="6.79821">
        <ele>2154</ele>
        <time>2000-01-01T03:31:20.000Z</time>
      </trkpt>
      <trkpt lat="45.98508" lon="6.79821">
        <ele>2164.7</ele>
        <time>2000-01-01T03:31:30.000Z</time>
      </trkpt>
      <trkpt lat="45.98494" lon="6.79822">
        <ele>2157</ele>
        <time>2000-01-01T03:31:40.000Z</time>
      </trkpt>
      <trkpt lat="45.9848" lon="6.79816">
        <ele>2168.2</ele>
        <time>2000-01-01T03:31:50.000Z</time>
      </trkpt>
      <trkpt lat="45.98469" lon="6.7982">
        <ele>2159</ele>
        <time>2000-01-01T03:32:00.000Z</time>
      </trkpt>
      <trkpt lat="45.98459" lon="6.79818">
        <ele>2170.1</ele>
        <time>2000-01-01T03:32:10.000Z</time>
      </trkpt>
      <trkpt lat="45.98451" lon="6.79803">
        <ele>2161</ele>
        <time>2000-01-01T03:32:20.000Z</time>
      </trkpt>
      <trkpt lat="45.98435" lon="6.79795">
        <ele>2171.6</ele>
        <time>2000-01-01T03:32:30.000Z</time>
      </trkpt>
      <trkpt lat="45.98412" lon="6.79798">
        <ele>2167</ele>
        <time>2000-01-01T03:32:40.000Z</time>
      </trkpt>
      <trkpt lat="45.98386" lon="6.79808">
        <ele>2177</ele>
        <time>2000-01-01T03:32:50.000Z</time>
      </trkpt>
      <trkpt lat="45.98364" lon="6.79798">
        <ele>2180</ele>
        <time>2000-01-01T03:33:00.000Z</time>
      </trkpt>
      <trkpt lat="45.98347" lon="6.79788">
        <ele>2183.1</ele>
        <time>2000-01-01T03:33:10.000Z</time>
      </trkpt>
      <trkpt lat="45.98334" lon="6.79775">
        <ele>2186</ele>
        <time>2000-01-01T03:33:20.000Z</time>
      </trkpt>
      <trkpt lat="45.9832" lon="6.79766">
        <ele>2192.2</ele>
        <time>2000-01-01T03:33:30.000Z</time>
      </trkpt>
      <trkpt lat="45.98306" lon="6.79761">
        <ele>2189</ele>
        <time>2000-01-01T03:33:40.000Z</time>
      </trkpt>
      <trkpt lat="45.98284" lon="6.79763">
        <ele>2192</ele>
        <time>2000-01-01T03:33:50.000Z</time>
      </trkpt>
      <trkpt lat="45.98263" lon="6.7976">
        <ele>2195</ele>
        <time>2000-01-01T03:34:00.000Z</time>
      </trkpt>
      <trkpt lat="45.98246" lon="6.7975">
        <ele>2204</ele>
        <time>2000-01-01T03:34:10.000Z</time>
      </trkpt>
      <trkpt lat="45.98235" lon="6.7976">
        <ele>2201</ele>
        <time>2000-01-01T03:34:20.000Z</time>
      </trkpt>
      <trkpt lat="45.98221" lon="6.79763">
        <ele>2208.3</ele>
        <time>2000-01-01T03:34:30.000Z</time>
      </trkpt>
      <trkpt lat="45.98203" lon="6.79785">
        <ele>2209</ele>
        <time>2000-01-01T03:34:40.000Z</time>
      </trkpt>
      <trkpt lat="45.98191" lon="6.79784">
        <ele>2210.8</ele>
        <time>2000-01-01T03:34:50.000Z</time>
      </trkpt>
      <trkpt lat="45.98174" lon="6.79776">
        <ele>2215</ele>
        <time>2000-01-01T03:35:00.000Z</time>
      </trkpt>
      <trkpt lat="45.9816" lon="6.79767">
        <ele>2219.8</ele>
        <time>2000-01-01T03:35:10.000Z</time>
      </trkpt>
      <trkpt lat="45.98147" lon="6.79749">
        <ele>2224</ele>
        <time>2000-01-01T03:35:20.000Z</time>
      </trkpt>
      <trkpt lat="45.98135" lon="6.79742">
        <ele>2222.1</ele>
        <time>2000-01-01T03:35:30.000Z</time>
      </trkpt>
      <trkpt lat="45.98119" lon="6.79727">
        <ele>2235</ele>
        <time>2000-01-01T03:35:40.000Z</time>
      </trkpt>
      <trkpt lat="45.98109" lon="6.79716">
        <ele>2226.1</ele>
        <time>2000-01-01T03:35:50.000Z</time>
      </trkpt>
      <trkpt lat="45.98083" lon="6.79681">
        <ele>2241</ele>
        <time>2000-01-01T03:36:00.000Z</time>
      </trkpt>
      <trkpt lat="45.9807" lon="6.7967">
        <ele>2235.5</ele>
        <time>2000-01-01T03:36:10.000Z</time>
      </trkpt>
      <trkpt lat="45.98059" lon="6.79667">
        <ele>2252</ele>
        <time>2000-01-01T03:36:20.000Z</time>
      </trkpt>
      <trkpt lat="45.98046" lon="6.79655">
        <ele>2237.6</ele>
        <time>2000-01-01T03:36:30.000Z</time>
      </trkpt>
      <trkpt lat="45.98027" lon="6.79648">
        <ele>2252</ele>
        <time>2000-01-01T03:36:40.000Z</time>
      </trkpt>
      <trkpt lat="45.98009" lon="6.79645">
        <ele>2240.5</ele>
        <time>2000-01-01T03:36:50.000Z</time>
      </trkpt>
      <trkpt lat="45.98012" lon="6.79656">
        <ele>2247</ele>
        <time>2000-01-01T03:37:00.000Z</time>
      </trkpt>
      <trkpt lat="45.98007" lon="6.79675">
        <ele>2240.7</ele>
        <time>2000-01-01T03:37:10.000Z</time>
      </trkpt>
      <trkpt lat="45.98009" lon="6.79687">
        <ele>2242</ele>
        <time>2000-01-01T03:37:20.000Z</time>
      </trkpt>
      <trkpt lat="45.98002" lon="6.79702">
        <ele>2238</ele>
        <time>2000-01-01T03:37:30.000Z</time>
      </trkpt>
      <trkpt lat="45.97999" lon="6.79716">
        <ele>2238</ele>
        <time>2000-01-01T03:37:40.000Z</time>
      </trkpt>
      <trkpt lat="45.97994" lon="6.79709">
        <ele>2222.7</ele>
        <time>2000-01-01T03:37:50.000Z</time>
      </trkpt>
      <trkpt lat="45.97989" lon="6.7969">
        <ele>2234</ele>
        <time>2000-01-01T03:38:00.000Z</time>
      </trkpt>
      <trkpt lat="45.97982" lon="6.79709">
        <ele>2220.5</ele>
        <time>2000-01-01T03:38:10.000Z</time>
      </trkpt>
      <trkpt lat="45.97974" lon="6.79737">
        <ele>2215</ele>
        <time>2000-01-01T03:38:20.000Z</time>
      </trkpt>
      <trkpt lat="45.97969" lon="6.79771">
        <ele>2202</ele>
        <time>2000-01-01T03:38:30.000Z</time>
      </trkpt>
      <trkpt lat="45.97961" lon="6.79766">
        <ele>2202</ele>
        <time>2000-01-01T03:38:40.000Z</time>
      </trkpt>
      <trkpt lat="45.97951" lon="6.79752">
        <ele>2199</ele>
        <time>2000-01-01T03:38:50.000Z</time>
      </trkpt>
      <trkpt lat="45.97926" lon="6.79728">
        <ele>2186</ele>
        <time>2000-01-01T03:39:00.000Z</time>
      </trkpt>
      <trkpt lat="45.97909" lon="6.79704">
        <ele>2177</ele>
        <time>2000-01-01T03:39:10.000Z</time>
      </trkpt>
      <trkpt lat="45.97895" lon="6.79686">
        <ele>2177</ele>
        <time>2000-01-01T03:39:20.000Z</time>
      </trkpt>
      <trkpt lat="45.97882" lon="6.7968">
        <ele>2173.7</ele>
        <time>2000-01-01T03:39:30.000Z</time>
      </trkpt>
      <trkpt lat="45.97864" lon="6.7967">
        <ele>2168</ele>
        <time>2000-01-01T03:39:40.000Z</time>
      </trkpt>
      <trkpt lat="45.97851" lon="6.7966">
        <ele>2173.8</ele>
        <time>2000-01-01T03:39:50.000Z</time>
      </trkpt>
      <trkpt lat="45.97824" lon="6.79651">
        <ele>2150</ele>
        <time>2000-01-01T03:40:00.000Z</time>
      </trkpt>
      <trkpt lat="45.97825" lon="6.79667">
        <ele>2146.9</ele>
        <time>2000-01-01T03:40:10.000Z</time>
      </trkpt>
      <trkpt lat="45.97831" lon="6.7969">
        <ele>2149</ele>
        <time>2000-01-01T03:40:20.000Z</time>
      </trkpt>
      <trkpt lat="45.97829" lon="6.79709">
        <ele>2135.8</ele>
        <time>2000-01-01T03:40:30.000Z</time>
      </trkpt>
      <trkpt lat="45.97823" lon="6.79734">
        <ele>2136</ele>
        <time>2000-01-01T03:40:40.000Z</time>
      </trkpt>
      <trkpt lat="45.97821" lon="6.79749">
        <ele>2135.8</ele>
        <time>2000-01-01T03:40:50.000Z</time>
      </trkpt>
      <trkpt lat="45.97811" lon="6.79758">
        <ele>2130</ele>
        <time>2000-01-01T03:41:00.000Z</time>
      </trkpt>
      <trkpt lat="45.978" lon="6.79754">
        <ele>2126.3</ele>
        <time>2000-01-01T03:41:10.000Z</time>
      </trkpt>
      <trkpt lat="45.97792" lon="6.79735">
        <ele>2122</ele>
        <time>2000-01-01T03:41:20.000Z</time>
      </trkpt>
      <trkpt lat="45.9779" lon="6.7972">
        <ele>2128.6</ele>
        <time>2000-01-01T03:41:30.000Z</time>
      </trkpt>
      <trkpt lat="45.97782" lon="6.79707">
        <ele>2117</ele>
        <time>2000-01-01T03:41:40.000Z</time>
      </trkpt>
      <trkpt lat="45.97781" lon="6.7969">
        <ele>2127.5</ele>
        <time>2000-01-01T03:41:50.000Z</time>
      </trkpt>
      <trkpt lat="45.97763" lon="6.79678">
        <ele>2109</ele>
        <time>2000-01-01T03:42:00.000Z</time>
      </trkpt>
      <trkpt lat="45.97758" lon="6.79658">
        <ele>2125.8</ele>
        <time>2000-01-01T03:42:10.000Z</time>
      </trkpt>
      <trkpt lat="45.97738" lon="6.7965">
        <ele>2097</ele>
        <time>2000-01-01T03:42:20.000Z</time>
      </trkpt>
      <trkpt lat="45.97719" lon="6.79635">
        <ele>2097</ele>
        <time>2000-01-01T03:42:30.000Z</time>
      </trkpt>
      <trkpt lat="45.9771" lon="6.79647">
        <ele>2102.7</ele>
        <time>2000-01-01T03:42:40.000Z</time>
      </trkpt>
      <trkpt lat="45.97707" lon="6.79659">
        <ele>2087</ele>
        <time>2000-01-01T03:42:50.000Z</time>
      </trkpt>
      <trkpt lat="45.977" lon="6.7967">
        <ele>2087.9</ele>
        <time>2000-01-01T03:43:00.000Z</time>
      </trkpt>
      <trkpt lat="45.97681" lon="6.7967">
        <ele>2075</ele>
        <time>2000-01-01T03:43:10.000Z</time>
      </trkpt>
      <trkpt lat="45.97647" lon="6.79656">
        <ele>2060</ele>
        <time>2000-01-01T03:43:20.000Z</time>
      </trkpt>
      <trkpt lat="45.97638" lon="6.79681">
        <ele>2051</ele>
        <time>2000-01-01T03:43:30.000Z</time>
      </trkpt>
      <trkpt lat="45.9763" lon="6.79709">
        <ele>2045</ele>
        <time>2000-01-01T03:43:40.000Z</time>
      </trkpt>
      <trkpt lat="45.97633" lon="6.79755">
        <ele>2041</ele>
        <time>2000-01-01T03:43:50.000Z</time>
      </trkpt>
      <trkpt lat="45.97638" lon="6.79795">
        <ele>2034</ele>
        <time>2000-01-01T03:44:00.000Z</time>
      </trkpt>
      <trkpt lat="45.97625" lon="6.79831">
        <ele>2032</ele>
        <time>2000-01-01T03:44:10.000Z</time>
      </trkpt>
      <trkpt lat="45.97629" lon="6.79868">
        <ele>2029</ele>
        <time>2000-01-01T03:44:20.000Z</time>
      </trkpt>
      <trkpt lat="45.97629" lon="6.7989">
        <ele>2033.7</ele>
        <time>2000-01-01T03:44:30.000Z</time>
      </trkpt>
      <trkpt lat="45.97616" lon="6.79889">
        <ele>2021</ele>
        <time>2000-01-01T03:44:40.000Z</time>
      </trkpt>
      <trkpt lat="45.97615" lon="6.79911">
        <ele>2028.5</ele>
        <time>2000-01-01T03:44:50.000Z</time>
      </trkpt>
      <trkpt lat="45.97631" lon="6.79929">
        <ele>2020</ele>
        <time>2000-01-01T03:45:00.000Z</time>
      </trkpt>
      <trkpt lat="45.97629" lon="6.79973">
        <ele>2015</ele>
        <time>2000-01-01T03:45:10.000Z</time>
      </trkpt>
      <trkpt lat="45.97608" lon="6.79992">
        <ele>2010</ele>
        <time>2000-01-01T03:45:20.000Z</time>
      </trkpt>
      <trkpt lat="45.97584" lon="6.80013">
        <ele>2008</ele>
        <time>2000-01-01T03:45:30.000Z</time>
      </trkpt>
      <trkpt lat="45.97577" lon="6.80036">
        <ele>2004.3</ele>
        <time>2000-01-01T03:45:40.000Z</time>
      </trkpt>
      <trkpt lat="45.97565" lon="6.80037">
        <ele>2003</ele>
        <time>2000-01-01T03:45:50.000Z</time>
      </trkpt>
      <trkpt lat="45.97553" lon="6.80053">
        <ele>2002.4</ele>
        <time>2000-01-01T03:46:00.000Z</time>
      </trkpt>
      <trkpt lat="45.97547" lon="6.80067">
        <ele>2000</ele>
        <time>2000-01-01T03:46:10.000Z</time>
      </trkpt>
      <trkpt lat="45.97513" lon="6.80055">
        <ele>1995</ele>
        <time>2000-01-01T03:46:20.000Z</time>
      </trkpt>
      <trkpt lat="45.97493" lon="6.80047">
        <ele>1992</ele>
        <time>2000-01-01T03:46:30.000Z</time>
      </trkpt>
      <trkpt lat="45.97479" lon="6.8003">
        <ele>1983.5</ele>
        <time>2000-01-01T03:46:40.000Z</time>
      </trkpt>
      <trkpt lat="45.97448" lon="6.80014">
        <ele>1984</ele>
        <time>2000-01-01T03:46:50.000Z</time>
      </trkpt>
      <trkpt lat="45.9743" lon="6.79993">
        <ele>1981</ele>
        <time>2000-01-01T03:47:00.000Z</time>
      </trkpt>
      <trkpt lat="45.97407" lon="6.79979">
        <ele>1978</ele>
        <time>2000-01-01T03:47:10.000Z</time>
      </trkpt>
      <trkpt lat="45.97383" lon="6.79955">
        <ele>1978</ele>
        <time>2000-01-01T03:47:20.000Z</time>
      </trkpt>
      <trkpt lat="45.97361" lon="6.79928">
        <ele>1977</ele>
        <time>2000-01-01T03:47:30.000Z</time>
      </trkpt>
      <trkpt lat="45.97341" lon="6.79905">
        <ele>1977</ele>
        <time>2000-01-01T03:47:40.000Z</time>
      </trkpt>
      <trkpt lat="45.97321" lon="6.79891">
        <ele>1976</ele>
        <time>2000-01-01T03:47:50.000Z</time>
      </trkpt>
      <trkpt lat="45.97289" lon="6.79864">
        <ele>1971</ele>
        <time>2000-01-01T03:48:00.000Z</time>
      </trkpt>
      <trkpt lat="45.97255" lon="6.79829">
        <ele>1970</ele>
        <time>2000-01-01T03:48:10.000Z</time>
      </trkpt>
      <trkpt lat="45.97242" lon="6.79827">
        <ele>1960.6</ele>
        <time>2000-01-01T03:48:20.000Z</time>
      </trkpt>
      <trkpt lat="45.97218" lon="6.79814">
        <ele>1963</ele>
        <time>2000-01-01T03:48:30.000Z</time>
      </trkpt>
      <trkpt lat="45.97202" lon="6.79808">
        <ele>1956.6</ele>
        <time>2000-01-01T03:48:40.000Z</time>
      </trkpt>
      <trkpt lat="45.97188" lon="6.79792">
        <ele>1963</ele>
        <time>2000-01-01T03:48:50.000Z</time>
      </trkpt>
      <trkpt lat="45.9717" lon="6.79782">
        <ele>1959</ele>
        <time>2000-01-01T03:49:00.000Z</time>
      </trkpt>
      <trkpt lat="45.9715" lon="6.79758">
        <ele>1958</ele>
        <time>2000-01-01T03:49:10.000Z</time>
      </trkpt>
      <trkpt lat="45.97136" lon="6.79728">
        <ele>1956</ele>
        <time>2000-01-01T03:49:20.000Z</time>
      </trkpt>
      <trkpt lat="45.97121" lon="6.79713">
        <ele>1947.5</ele>
        <time>2000-01-01T03:49:30.000Z</time>
      </trkpt>
      <trkpt lat="45.97114" lon="6.79702">
        <ele>1955</ele>
        <time>2000-01-01T03:49:40.000Z</time>
      </trkpt>
      <trkpt lat="45.97092" lon="6.79694">
        <ele>1952</ele>
        <time>2000-01-01T03:49:50.000Z</time>
      </trkpt>
      <trkpt lat="45.97073" lon="6.7968">
        <ele>1952</ele>
        <time>2000-01-01T03:50:00.000Z</time>
      </trkpt>
      <trkpt lat="45.97036" lon="6.79664">
        <ele>1956</ele>
        <time>2000-01-01T03:50:10.000Z</time>
      </trkpt>
      <trkpt lat="45.97017" lon="6.79653">
        <ele>1956</ele>
        <time>2000-01-01T03:50:20.000Z</time>
      </trkpt>
      <trkpt lat="45.96998" lon="6.79645">
        <ele>1956</ele>
        <time>2000-01-01T03:50:30.000Z</time>
      </trkpt>
      <trkpt lat="45.96985" lon="6.79627">
        <ele>1960.4</ele>
        <time>2000-01-01T03:50:40.000Z</time>
      </trkpt>
      <trkpt lat="45.96964" lon="6.79629">
        <ele>1962</ele>
        <time>2000-01-01T03:50:50.000Z</time>
      </trkpt>
      <trkpt lat="45.96951" lon="6.79625">
        <ele>1961.8</ele>
        <time>2000-01-01T03:51:00.000Z</time>
      </trkpt>
      <trkpt lat="45.96936" lon="6.79627">
        <ele>1968</ele>
        <time>2000-01-01T03:51:10.000Z</time>
      </trkpt>
      <trkpt lat="45.96919" lon="6.79632">
        <ele>1962.7</ele>
        <time>2000-01-01T03:51:20.000Z</time>
      </trkpt>
      <trkpt lat="45.9691" lon="6.79636">
        <ele>1968</ele>
        <time>2000-01-01T03:51:30.000Z</time>
      </trkpt>
      <trkpt lat="45.96905" lon="6.79637">
        <ele>1966.8</ele>
        <time>2000-01-01T03:51:40.000Z</time>
      </trkpt>
      <trkpt lat="45.96882" lon="6.79635">
        <ele>1969</ele>
        <time>2000-01-01T03:51:50.000Z</time>
      </trkpt>
      <trkpt lat="45.96871" lon="6.79641">
        <ele>1968</ele>
        <time>2000-01-01T03:52:00.000Z</time>
      </trkpt>
      <trkpt lat="45.96864" lon="6.7965">
        <ele>1969</ele>
        <time>2000-01-01T03:52:10.000Z</time>
      </trkpt>
      <trkpt lat="45.96859" lon="6.79658">
        <ele>1968.4</ele>
        <time>2000-01-01T03:52:20.000Z</time>
      </trkpt>
      <trkpt lat="45.9684" lon="6.79645">
        <ele>1968</ele>
        <time>2000-01-01T03:52:30.000Z</time>
      </trkpt>
      <trkpt lat="45.96822" lon="6.79631">
        <ele>1967</ele>
        <time>2000-01-01T03:52:40.000Z</time>
      </trkpt>
      <trkpt lat="45.96805" lon="6.79616">
        <ele>1966</ele>
        <time>2000-01-01T03:52:50.000Z</time>
      </trkpt>
      <trkpt lat="45.96785" lon="6.79608">
        <ele>1964</ele>
        <time>2000-01-01T03:53:00.000Z</time>
      </trkpt>
      <trkpt lat="45.96769" lon="6.79616">
        <ele>1961.6</ele>
        <time>2000-01-01T03:53:10.000Z</time>
      </trkpt>
      <trkpt lat="45.96757" lon="6.79615">
        <ele>1958</ele>
        <time>2000-01-01T03:53:20.000Z</time>
      </trkpt>
      <trkpt lat="45.96751" lon="6.79612">
        <ele>1960.6</ele>
        <time>2000-01-01T03:53:30.000Z</time>
      </trkpt>
      <trkpt lat="45.96745" lon="6.79604">
        <ele>1952.6</ele>
        <time>2000-01-01T03:53:40.000Z</time>
      </trkpt>
      <trkpt lat="45.96735" lon="6.79596">
        <ele>1955</ele>
        <time>2000-01-01T03:53:50.000Z</time>
      </trkpt>
      <trkpt lat="45.96718" lon="6.79588">
        <ele>1950.3</ele>
        <time>2000-01-01T03:54:00.000Z</time>
      </trkpt>
      <trkpt lat="45.96702" lon="6.79565">
        <ele>1946</ele>
        <time>2000-01-01T03:54:10.000Z</time>
      </trkpt>
      <trkpt lat="45.96694" lon="6.79548">
        <ele>1947.2</ele>
        <time>2000-01-01T03:54:20.000Z</time>
      </trkpt>
      <trkpt lat="45.96692" lon="6.7953">
        <ele>1944</ele>
        <time>2000-01-01T03:54:30.000Z</time>
      </trkpt>
      <trkpt lat="45.9667" lon="6.79499">
        <ele>1937</ele>
        <time>2000-01-01T03:54:40.000Z</time>
      </trkpt>
      <trkpt lat="45.96654" lon="6.79486">
        <ele>1938</ele>
        <time>2000-01-01T03:54:50.000Z</time>
      </trkpt>
      <trkpt lat="45.96614" lon="6.79433">
        <ele>1932</ele>
        <time>2000-01-01T03:55:00.000Z</time>
      </trkpt>
      <trkpt lat="45.96603" lon="6.79415">
        <ele>1933</ele>
        <time>2000-01-01T03:55:10.000Z</time>
      </trkpt>
      <trkpt lat="45.966" lon="6.79389">
        <ele>1931</ele>
        <time>2000-01-01T03:55:20.000Z</time>
      </trkpt>
      <trkpt lat="45.96599" lon="6.7936">
        <ele>1930</ele>
        <time>2000-01-01T03:55:30.000Z</time>
      </trkpt>
      <trkpt lat="45.96602" lon="6.79337">
        <ele>1930.5</ele>
        <time>2000-01-01T03:55:40.000Z</time>
      </trkpt>
      <trkpt lat="45.96614" lon="6.79306">
        <ele>1928</ele>
        <time>2000-01-01T03:55:50.000Z</time>
      </trkpt>
      <trkpt lat="45.96623" lon="6.79309">
        <ele>1924</ele>
        <time>2000-01-01T03:56:00.000Z</time>
      </trkpt>
      <trkpt lat="45.9663" lon="6.79306">
        <ele>1923.3</ele>
        <time>2000-01-01T03:56:10.000Z</time>
      </trkpt>
      <trkpt lat="45.96636" lon="6.79296">
        <ele>1922</ele>
        <time>2000-01-01T03:56:20.000Z</time>
      </trkpt>
      <trkpt lat="45.96647" lon="6.79299">
        <ele>1921.7</ele>
        <time>2000-01-01T03:56:30.000Z</time>
      </trkpt>
      <trkpt lat="45.96655" lon="6.793">
        <ele>1920</ele>
        <time>2000-01-01T03:56:40.000Z</time>
      </trkpt>
      <trkpt lat="45.96662" lon="6.79292">
        <ele>1920.2</ele>
        <time>2000-01-01T03:56:50.000Z</time>
      </trkpt>
      <trkpt lat="45.96664" lon="6.79279">
        <ele>1918</ele>
        <time>2000-01-01T03:57:00.000Z</time>
      </trkpt>
      <trkpt lat="45.96662" lon="6.79265">
        <ele>1912</ele>
        <time>2000-01-01T03:57:10.000Z</time>
      </trkpt>
      <trkpt lat="45.96668" lon="6.79256">
        <ele>1906.4</ele>
        <time>2000-01-01T03:57:20.000Z</time>
      </trkpt>
      <trkpt lat="45.96682" lon="6.79238">
        <ele>1904</ele>
        <time>2000-01-01T03:57:30.000Z</time>
      </trkpt>
      <trkpt lat="45.96691" lon="6.79215">
        <ele>1888.9</ele>
        <time>2000-01-01T03:57:40.000Z</time>
      </trkpt>
      <trkpt lat="45.96706" lon="6.79209">
        <ele>1893</ele>
        <time>2000-01-01T03:57:50.000Z</time>
      </trkpt>
      <trkpt lat="45.96714" lon="6.79197">
        <ele>1883.3</ele>
        <time>2000-01-01T03:58:00.000Z</time>
      </trkpt>
      <trkpt lat="45.96712" lon="6.79186">
        <ele>1886</ele>
        <time>2000-01-01T03:58:10.000Z</time>
      </trkpt>
      <trkpt lat="45.96705" lon="6.79167">
        <ele>1882.4</ele>
        <time>2000-01-01T03:58:20.000Z</time>
      </trkpt>
      <trkpt lat="45.96707" lon="6.79141">
        <ele>1880</ele>
        <time>2000-01-01T03:58:30.000Z</time>
      </trkpt>
      <trkpt lat="45.96728" lon="6.79152">
        <ele>1874</ele>
        <time>2000-01-01T03:58:40.000Z</time>
      </trkpt>
      <trkpt lat="45.96738" lon="6.79137">
        <ele>1864.7</ele>
        <time>2000-01-01T03:58:50.000Z</time>
      </trkpt>
      <trkpt lat="45.96746" lon="6.79133">
        <ele>1860</ele>
        <time>2000-01-01T03:59:00.000Z</time>
      </trkpt>
      <trkpt lat="45.96759" lon="6.79135">
        <ele>1853.6</ele>
        <time>2000-01-01T03:59:10.000Z</time>
      </trkpt>
      <trkpt lat="45.96768" lon="6.79126">
        <ele>1850</ele>
        <time>2000-01-01T03:59:20.000Z</time>
      </trkpt>
      <trkpt lat="45.96774" lon="6.79121">
        <ele>1851.3</ele>
        <time>2000-01-01T03:59:30.000Z</time>
      </trkpt>
      <trkpt lat="45.96768" lon="6.79115">
        <ele>1850.6</ele>
        <time>2000-01-01T03:59:40.000Z</time>
      </trkpt>
      <trkpt lat="45.96777" lon="6.79097">
        <ele>1837</ele>
        <time>2000-01-01T03:59:50.000Z</time>
      </trkpt>
      <trkpt lat="45.96764" lon="6.79066">
        <ele>1829</ele>
        <time>2000-01-01T04:00:00.000Z</time>
      </trkpt>
      <trkpt lat="45.96753" lon="6.79065">
        <ele>1843.7</ele>
        <time>2000-01-01T04:00:10.000Z</time>
      </trkpt>
      <trkpt lat="45.96741" lon="6.79051">
        <ele>1828</ele>
        <time>2000-01-01T04:00:20.000Z</time>
      </trkpt>
      <trkpt lat="45.9674" lon="6.79033">
        <ele>1846.1</ele>
        <time>2000-01-01T04:00:30.000Z</time>
      </trkpt>
      <trkpt lat="45.96733" lon="6.79029">
        <ele>1825</ele>
        <time>2000-01-01T04:00:40.000Z</time>
      </trkpt>
      <trkpt lat="45.96725" lon="6.79009">
        <ele>1845</ele>
        <time>2000-01-01T04:00:50.000Z</time>
      </trkpt>
      <trkpt lat="45.96715" lon="6.78989">
        <ele>1825</ele>
        <time>2000-01-01T04:01:00.000Z</time>
      </trkpt>
      <trkpt lat="45.96693" lon="6.78973">
        <ele>1825</ele>
        <time>2000-01-01T04:01:10.000Z</time>
      </trkpt>
      <trkpt lat="45.96679" lon="6.78945">
        <ele>1827</ele>
        <time>2000-01-01T04:01:20.000Z</time>
      </trkpt>
      <trkpt lat="45.96655" lon="6.78937">
        <ele>1827</ele>
        <time>2000-01-01T04:01:30.000Z</time>
      </trkpt>
      <trkpt lat="45.9665" lon="6.78926">
        <ele>1833.5</ele>
        <time>2000-01-01T04:01:40.000Z</time>
      </trkpt>
      <trkpt lat="45.96637" lon="6.78902">
        <ele>1823</ele>
        <time>2000-01-01T04:01:50.000Z</time>
      </trkpt>
      <trkpt lat="45.96622" lon="6.78887">
        <ele>1820.6</ele>
        <time>2000-01-01T04:02:00.000Z</time>
      </trkpt>
      <trkpt lat="45.96611" lon="6.78864">
        <ele>1820</ele>
        <time>2000-01-01T04:02:10.000Z</time>
      </trkpt>
      <trkpt lat="45.96606" lon="6.78856">
        <ele>1817.6</ele>
        <time>2000-01-01T04:02:20.000Z</time>
      </trkpt>
      <trkpt lat="45.96602" lon="6.78839">
        <ele>1808</ele>
        <time>2000-01-01T04:02:30.000Z</time>
      </trkpt>
      <trkpt lat="45.96587" lon="6.7881">
        <ele>1807</ele>
        <time>2000-01-01T04:02:40.000Z</time>
      </trkpt>
      <trkpt lat="45.96583" lon="6.78795">
        <ele>1806.5</ele>
        <time>2000-01-01T04:02:50.000Z</time>
      </trkpt>
      <trkpt lat="45.9657" lon="6.78786">
        <ele>1806</ele>
        <time>2000-01-01T04:03:00.000Z</time>
      </trkpt>
      <trkpt lat="45.96564" lon="6.78774">
        <ele>1801.7</ele>
        <time>2000-01-01T04:03:10.000Z</time>
      </trkpt>
      <trkpt lat="45.96554" lon="6.78763">
        <ele>1801</ele>
        <time>2000-01-01T04:03:20.000Z</time>
      </trkpt>
      <trkpt lat="45.96543" lon="6.78741">
        <ele>1799</ele>
        <time>2000-01-01T04:03:30.000Z</time>
      </trkpt>
      <trkpt lat="45.96521" lon="6.78723">
        <ele>1798</ele>
        <time>2000-01-01T04:03:40.000Z</time>
      </trkpt>
      <trkpt lat="45.96511" lon="6.78692">
        <ele>1787</ele>
        <time>2000-01-01T04:03:50.000Z</time>
      </trkpt>
      <trkpt lat="45.965" lon="6.7866">
        <ele>1780</ele>
        <time>2000-01-01T04:04:00.000Z</time>
      </trkpt>
      <trkpt lat="45.96496" lon="6.78652">
        <ele>1771.1</ele>
        <time>2000-01-01T04:04:10.000Z</time>
      </trkpt>
      <trkpt lat="45.96497" lon="6.78638">
        <ele>1768.3</ele>
        <time>2000-01-01T04:04:20.000Z</time>
      </trkpt>
      <trkpt lat="45.9649" lon="6.78626">
        <ele>1765</ele>
        <time>2000-01-01T04:04:30.000Z</time>
      </trkpt>
      <trkpt lat="45.96478" lon="6.78621">
        <ele>1765.8</ele>
        <time>2000-01-01T04:04:40.000Z</time>
      </trkpt>
      <trkpt lat="45.96458" lon="6.78601">
        <ele>1761</ele>
        <time>2000-01-01T04:04:50.000Z</time>
      </trkpt>
      <trkpt lat="45.96443" lon="6.78593">
        <ele>1766.3</ele>
        <time>2000-01-01T04:05:00.000Z</time>
      </trkpt>
      <trkpt lat="45.96431" lon="6.78585">
        <ele>1749</ele>
        <time>2000-01-01T04:05:10.000Z</time>
      </trkpt>
      <trkpt lat="45.9642" lon="6.78588">
        <ele>1765.3</ele>
        <time>2000-01-01T04:05:20.000Z</time>
      </trkpt>
      <trkpt lat="45.96414" lon="6.78573">
        <ele>1746</ele>
        <time>2000-01-01T04:05:30.000Z</time>
      </trkpt>
      <trkpt lat="45.96399" lon="6.78553">
        <ele>1742</ele>
        <time>2000-01-01T04:05:40.000Z</time>
      </trkpt>
      <trkpt lat="45.9639" lon="6.78539">
        <ele>1756.2</ele>
        <time>2000-01-01T04:05:50.000Z</time>
      </trkpt>
      <trkpt lat="45.96382" lon="6.78516">
        <ele>1728</ele>
        <time>2000-01-01T04:06:00.000Z</time>
      </trkpt>
      <trkpt lat="45.96372" lon="6.78505">
        <ele>1751.9</ele>
        <time>2000-01-01T04:06:10.000Z</time>
      </trkpt>
      <trkpt lat="45.96364" lon="6.78486">
        <ele>1725</ele>
        <time>2000-01-01T04:06:20.000Z</time>
      </trkpt>
      <trkpt lat="45.96355" lon="6.78474">
        <ele>1727.5</ele>
        <time>2000-01-01T04:06:30.000Z</time>
      </trkpt>
      <trkpt lat="45.96355" lon="6.78461">
        <ele>1719</ele>
        <time>2000-01-01T04:06:40.000Z</time>
      </trkpt>
      <trkpt lat="45.96352" lon="6.78451">
        <ele>1720.9</ele>
        <time>2000-01-01T04:06:50.000Z</time>
      </trkpt>
      <trkpt lat="45.96346" lon="6.78439">
        <ele>1716.6</ele>
        <time>2000-01-01T04:07:00.000Z</time>
      </trkpt>
      <trkpt lat="45.96346" lon="6.78428">
        <ele>1701</ele>
        <time>2000-01-01T04:07:10.000Z</time>
      </trkpt>
      <trkpt lat="45.96334" lon="6.78416">
        <ele>1702.6</ele>
        <time>2000-01-01T04:07:20.000Z</time>
      </trkpt>
      <trkpt lat="45.96326" lon="6.78401">
        <ele>1692</ele>
        <time>2000-01-01T04:07:30.000Z</time>
      </trkpt>
      <trkpt lat="45.96314" lon="6.78376">
        <ele>1690</ele>
        <time>2000-01-01T04:07:40.000Z</time>
      </trkpt>
      <trkpt lat="45.96303" lon="6.7837">
        <ele>1708</ele>
        <time>2000-01-01T04:07:50.000Z</time>
      </trkpt>
      <trkpt lat="45.96262" lon="6.78362">
        <ele>1689</ele>
        <time>2000-01-01T04:08:00.000Z</time>
      </trkpt>
      <trkpt lat="45.96247" lon="6.78354">
        <ele>1724.2</ele>
        <time>2000-01-01T04:08:10.000Z</time>
      </trkpt>
      <trkpt lat="45.96234" lon="6.7834">
        <ele>1670</ele>
        <time>2000-01-01T04:08:20.000Z</time>
      </trkpt>
      <trkpt lat="45.96221" lon="6.78322">
        <ele>1713.4</ele>
        <time>2000-01-01T04:08:30.000Z</time>
      </trkpt>
      <trkpt lat="45.96207" lon="6.7831">
        <ele>1669</ele>
        <time>2000-01-01T04:08:40.000Z</time>
      </trkpt>
      <trkpt lat="45.96195" lon="6.78307">
        <ele>1711.6</ele>
        <time>2000-01-01T04:08:50.000Z</time>
      </trkpt>
      <trkpt lat="45.96165" lon="6.78292">
        <ele>1668</ele>
        <time>2000-01-01T04:09:00.000Z</time>
      </trkpt>
      <trkpt lat="45.96158" lon="6.78281">
        <ele>1707.8</ele>
        <time>2000-01-01T04:09:10.000Z</time>
      </trkpt>
      <trkpt lat="45.96148" lon="6.78276">
        <ele>1651</ele>
        <time>2000-01-01T04:09:20.000Z</time>
      </trkpt>
      <trkpt lat="45.96151" lon="6.78264">
        <ele>1701.6</ele>
        <time>2000-01-01T04:09:30.000Z</time>
      </trkpt>
      <trkpt lat="45.96152" lon="6.78249">
        <ele>1638</ele>
        <time>2000-01-01T04:09:40.000Z</time>
      </trkpt>
      <trkpt lat="45.96144" lon="6.78246">
        <ele>1655.3</ele>
        <time>2000-01-01T04:09:50.000Z</time>
      </trkpt>
      <trkpt lat="45.96134" lon="6.78253">
        <ele>1634</ele>
        <time>2000-01-01T04:10:00.000Z</time>
      </trkpt>
      <trkpt lat="45.96135" lon="6.78244">
        <ele>1649.7</ele>
        <time>2000-01-01T04:10:10.000Z</time>
      </trkpt>
      <trkpt lat="45.96122" lon="6.78241">
        <ele>1626</ele>
        <time>2000-01-01T04:10:20.000Z</time>
      </trkpt>
      <trkpt lat="45.96129" lon="6.78231">
        <ele>1642.8</ele>
        <time>2000-01-01T04:10:30.000Z</time>
      </trkpt>
      <trkpt lat="45.96122" lon="6.78221">
        <ele>1616</ele>
        <time>2000-01-01T04:10:40.000Z</time>
      </trkpt>
      <trkpt lat="45.96121" lon="6.78211">
        <ele>1631.6</ele>
        <time>2000-01-01T04:10:50.000Z</time>
      </trkpt>
      <trkpt lat="45.96125" lon="6.78205">
        <ele>1628.7</ele>
        <time>2000-01-01T04:11:00.000Z</time>
      </trkpt>
      <trkpt lat="45.96122" lon="6.78191">
        <ele>1604</ele>
        <time>2000-01-01T04:11:10.000Z</time>
      </trkpt>
      <trkpt lat="45.96122" lon="6.78182">
        <ele>1617</ele>
        <time>2000-01-01T04:11:20.000Z</time>
      </trkpt>
      <trkpt lat="45.96106" lon="6.78193">
        <ele>1597</ele>
        <time>2000-01-01T04:11:30.000Z</time>
      </trkpt>
      <trkpt lat="45.96107" lon="6.78181">
        <ele>1611.9</ele>
        <time>2000-01-01T04:11:40.000Z</time>
      </trkpt>
      <trkpt lat="45.9611" lon="6.78167">
        <ele>1608.3</ele>
        <time>2000-01-01T04:11:50.000Z</time>
      </trkpt>
      <trkpt lat="45.96101" lon="6.78157">
        <ele>1580</ele>
        <time>2000-01-01T04:12:00.000Z</time>
      </trkpt>
      <trkpt lat="45.96094" lon="6.78142">
        <ele>1582.7</ele>
        <time>2000-01-01T04:12:10.000Z</time>
      </trkpt>
      <trkpt lat="45.96106" lon="6.78128">
        <ele>1563</ele>
        <time>2000-01-01T04:12:20.000Z</time>
      </trkpt>
      <trkpt lat="45.9609" lon="6.78095">
        <ele>1558</ele>
        <time>2000-01-01T04:12:30.000Z</time>
      </trkpt>
      <trkpt lat="45.96086" lon="6.78064">
        <ele>1556</ele>
        <time>2000-01-01T04:12:40.000Z</time>
      </trkpt>
      <trkpt lat="45.96069" lon="6.78074">
        <ele>1569.2</ele>
        <time>2000-01-01T04:12:50.000Z</time>
      </trkpt>
      <trkpt lat="45.96058" lon="6.78067">
        <ele>1553</ele>
        <time>2000-01-01T04:13:00.000Z</time>
      </trkpt>
      <trkpt lat="45.96052" lon="6.78074">
        <ele>1566.8</ele>
        <time>2000-01-01T04:13:10.000Z</time>
      </trkpt>
      <trkpt lat="45.96035" lon="6.78066">
        <ele>1552</ele>
        <time>2000-01-01T04:13:20.000Z</time>
      </trkpt>
      <trkpt lat="45.96025" lon="6.78048">
        <ele>1562.8</ele>
        <time>2000-01-01T04:13:30.000Z</time>
      </trkpt>
      <trkpt lat="45.96039" lon="6.78036">
        <ele>1554</ele>
        <time>2000-01-01T04:13:40.000Z</time>
      </trkpt>
      <trkpt lat="45.96045" lon="6.78036">
        <ele>1564.8</ele>
        <time>2000-01-01T04:13:50.000Z</time>
      </trkpt>
      <trkpt lat="45.96049" lon="6.78038">
        <ele>1565.4</ele>
        <time>2000-01-01T04:14:00.000Z</time>
      </trkpt>
      <trkpt lat="45.96052" lon="6.78038">
        <ele>1565.9</ele>
        <time>2000-01-01T04:14:10.000Z</time>
      </trkpt>
      <trkpt lat="45.96061" lon="6.78016">
        <ele>1557</ele>
        <time>2000-01-01T04:14:20.000Z</time>
      </trkpt>
      <trkpt lat="45.9606" lon="6.78005">
        <ele>1568.8</ele>
        <time>2000-01-01T04:14:30.000Z</time>
      </trkpt>
      <trkpt lat="45.96073" lon="6.77981">
        <ele>1558</ele>
        <time>2000-01-01T04:14:40.000Z</time>
      </trkpt>
      <trkpt lat="45.96069" lon="6.77969">
        <ele>1574.8</ele>
        <time>2000-01-01T04:14:50.000Z</time>
      </trkpt>
      <trkpt lat="45.96075" lon="6.77951">
        <ele>1562</ele>
        <time>2000-01-01T04:15:00.000Z</time>
      </trkpt>
      <trkpt lat="45.96064" lon="6.77941">
        <ele>1578.2</ele>
        <time>2000-01-01T04:15:10.000Z</time>
      </trkpt>
      <trkpt lat="45.96043" lon="6.7792">
        <ele>1563</ele>
        <time>2000-01-01T04:15:20.000Z</time>
      </trkpt>
      <trkpt lat="45.9603" lon="6.77917">
        <ele>1572.2</ele>
        <time>2000-01-01T04:15:30.000Z</time>
      </trkpt>
      <trkpt lat="45.96019" lon="6.77901">
        <ele>1565</ele>
        <time>2000-01-01T04:15:40.000Z</time>
      </trkpt>
      <trkpt lat="45.96004" lon="6.77891">
        <ele>1581.2</ele>
        <time>2000-01-01T04:15:50.000Z</time>
      </trkpt>
      <trkpt lat="45.95988" lon="6.77887">
        <ele>1570</ele>
        <time>2000-01-01T04:16:00.000Z</time>
      </trkpt>
      <trkpt lat="45.95944" lon="6.77869">
        <ele>1570</ele>
        <time>2000-01-01T04:16:10.000Z</time>
      </trkpt>
      <trkpt lat="45.9592" lon="6.77868">
        <ele>1566</ele>
        <time>2000-01-01T04:16:20.000Z</time>
      </trkpt>
      <trkpt lat="45.95895" lon="6.77862">
        <ele>1562</ele>
        <time>2000-01-01T04:16:30.000Z</time>
      </trkpt>
      <trkpt lat="45.95888" lon="6.7785">
        <ele>1549.1</ele>
        <time>2000-01-01T04:16:40.000Z</time>
      </trkpt>
      <trkpt lat="45.95896" lon="6.77819">
        <ele>1554</ele>
        <time>2000-01-01T04:16:50.000Z</time>
      </trkpt>
      <trkpt lat="45.95897" lon="6.77806">
        <ele>1555.5</ele>
        <time>2000-01-01T04:17:00.000Z</time>
      </trkpt>
      <trkpt lat="45.95885" lon="6.77798">
        <ele>1551</ele>
        <time>2000-01-01T04:17:10.000Z</time>
      </trkpt>
      <trkpt lat="45.9587" lon="6.77781">
        <ele>1544</ele>
        <time>2000-01-01T04:17:20.000Z</time>
      </trkpt>
      <trkpt lat="45.95856" lon="6.7776">
        <ele>1544</ele>
        <time>2000-01-01T04:17:30.000Z</time>
      </trkpt>
      <trkpt lat="45.95856" lon="6.77731">
        <ele>1543</ele>
        <time>2000-01-01T04:17:40.000Z</time>
      </trkpt>
      <trkpt lat="45.95857" lon="6.77702">
        <ele>1538</ele>
        <time>2000-01-01T04:17:50.000Z</time>
      </trkpt>
      <trkpt lat="45.95862" lon="6.7768">
        <ele>1549.7</ele>
        <time>2000-01-01T04:18:00.000Z</time>
      </trkpt>
      <trkpt lat="45.95862" lon="6.77668">
        <ele>1537</ele>
        <time>2000-01-01T04:18:10.000Z</time>
      </trkpt>
      <trkpt lat="45.95856" lon="6.77668">
        <ele>1547.6</ele>
        <time>2000-01-01T04:18:20.000Z</time>
      </trkpt>
      <trkpt lat="45.95848" lon="6.77675">
        <ele>1545.6</ele>
        <time>2000-01-01T04:18:30.000Z</time>
      </trkpt>
      <trkpt lat="45.95816" lon="6.77695">
        <ele>1526</ele>
        <time>2000-01-01T04:18:40.000Z</time>
      </trkpt>
      <trkpt lat="45.95801" lon="6.77682">
        <ele>1527.7</ele>
        <time>2000-01-01T04:18:50.000Z</time>
      </trkpt>
      <trkpt lat="45.95804" lon="6.77655">
        <ele>1520</ele>
        <time>2000-01-01T04:19:00.000Z</time>
      </trkpt>
      <trkpt lat="45.95785" lon="6.77642">
        <ele>1513</ele>
        <time>2000-01-01T04:19:10.000Z</time>
      </trkpt>
      <trkpt lat="45.95779" lon="6.7763">
        <ele>1521.6</ele>
        <time>2000-01-01T04:19:20.000Z</time>
      </trkpt>
      <trkpt lat="45.95778" lon="6.77615">
        <ele>1507</ele>
        <time>2000-01-01T04:19:30.000Z</time>
      </trkpt>
      <trkpt lat="45.95789" lon="6.77589">
        <ele>1507</ele>
        <time>2000-01-01T04:19:40.000Z</time>
      </trkpt>
      <trkpt lat="45.95794" lon="6.77558">
        <ele>1509</ele>
        <time>2000-01-01T04:19:50.000Z</time>
      </trkpt>
      <trkpt lat="45.95794" lon="6.77536">
        <ele>1525.3</ele>
        <time>2000-01-01T04:20:00.000Z</time>
      </trkpt>
      <trkpt lat="45.95793" lon="6.7752">
        <ele>1509</ele>
        <time>2000-01-01T04:20:10.000Z</time>
      </trkpt>
      <trkpt lat="45.95781" lon="6.77496">
        <ele>1506</ele>
        <time>2000-01-01T04:20:20.000Z</time>
      </trkpt>
      <trkpt lat="45.95773" lon="6.77472">
        <ele>1522.5</ele>
        <time>2000-01-01T04:20:30.000Z</time>
      </trkpt>
      <trkpt lat="45.95759" lon="6.7745">
        <ele>1503</ele>
        <time>2000-01-01T04:20:40.000Z</time>
      </trkpt>
      <trkpt lat="45.95751" lon="6.77435">
        <ele>1518.3</ele>
        <time>2000-01-01T04:20:50.000Z</time>
      </trkpt>
      <trkpt lat="45.95738" lon="6.77431">
        <ele>1500</ele>
        <time>2000-01-01T04:21:00.000Z</time>
      </trkpt>
      <trkpt lat="45.95725" lon="6.77418">
        <ele>1504.6</ele>
        <time>2000-01-01T04:21:10.000Z</time>
      </trkpt>
      <trkpt lat="45.95713" lon="6.77418">
        <ele>1498</ele>
        <time>2000-01-01T04:21:20.000Z</time>
      </trkpt>
      <trkpt lat="45.95698" lon="6.77423">
        <ele>1500.2</ele>
        <time>2000-01-01T04:21:30.000Z</time>
      </trkpt>
      <trkpt lat="45.95689" lon="6.77423">
        <ele>1492</ele>
        <time>2000-01-01T04:21:40.000Z</time>
      </trkpt>
      <trkpt lat="45.95662" lon="6.77404">
        <ele>1488</ele>
        <time>2000-01-01T04:21:50.000Z</time>
      </trkpt>
      <trkpt lat="45.95645" lon="6.77395">
        <ele>1485.1</ele>
        <time>2000-01-01T04:22:00.000Z</time>
      </trkpt>
      <trkpt lat="45.95641" lon="6.77361">
        <ele>1480</ele>
        <time>2000-01-01T04:22:10.000Z</time>
      </trkpt>
      <trkpt lat="45.9564" lon="6.77338">
        <ele>1485.3</ele>
        <time>2000-01-01T04:22:20.000Z</time>
      </trkpt>
      <trkpt lat="45.95632" lon="6.7731">
        <ele>1473</ele>
        <time>2000-01-01T04:22:30.000Z</time>
      </trkpt>
      <trkpt lat="45.95624" lon="6.77268">
        <ele>1469</ele>
        <time>2000-01-01T04:22:40.000Z</time>
      </trkpt>
      <trkpt lat="45.95622" lon="6.77237">
        <ele>1469</ele>
        <time>2000-01-01T04:22:50.000Z</time>
      </trkpt>
      <trkpt lat="45.95613" lon="6.77206">
        <ele>1463</ele>
        <time>2000-01-01T04:23:00.000Z</time>
      </trkpt>
      <trkpt lat="45.95609" lon="6.77181">
        <ele>1477.7</ele>
        <time>2000-01-01T04:23:10.000Z</time>
      </trkpt>
      <trkpt lat="45.95604" lon="6.77157">
        <ele>1463</ele>
        <time>2000-01-01T04:23:20.000Z</time>
      </trkpt>
      <trkpt lat="45.956" lon="6.77148">
        <ele>1480.1</ele>
        <time>2000-01-01T04:23:30.000Z</time>
      </trkpt>
      <trkpt lat="45.95593" lon="6.77143">
        <ele>1479.7</ele>
        <time>2000-01-01T04:23:40.000Z</time>
      </trkpt>
      <trkpt lat="45.95577" lon="6.77135">
        <ele>1453</ele>
        <time>2000-01-01T04:23:50.000Z</time>
      </trkpt>
      <trkpt lat="45.9556" lon="6.77115">
        <ele>1448</ele>
        <time>2000-01-01T04:24:00.000Z</time>
      </trkpt>
      <trkpt lat="45.95544" lon="6.771">
        <ele>1448</ele>
        <time>2000-01-01T04:24:10.000Z</time>
      </trkpt>
      <trkpt lat="45.95523" lon="6.77059">
        <ele>1444</ele>
        <time>2000-01-01T04:24:20.000Z</time>
      </trkpt>
      <trkpt lat="45.95516" lon="6.7704">
        <ele>1461.8</ele>
        <time>2000-01-01T04:24:30.000Z</time>
      </trkpt>
      <trkpt lat="45.95505" lon="6.7703">
        <ele>1443</ele>
        <time>2000-01-01T04:24:40.000Z</time>
      </trkpt>
      <trkpt lat="45.95494" lon="6.7703">
        <ele>1444.3</ele>
        <time>2000-01-01T04:24:50.000Z</time>
      </trkpt>
      <trkpt lat="45.95459" lon="6.77013">
        <ele>1430</ele>
        <time>2000-01-01T04:25:00.000Z</time>
      </trkpt>
      <trkpt lat="45.95447" lon="6.77015">
        <ele>1437.8</ele>
        <time>2000-01-01T04:25:10.000Z</time>
      </trkpt>
      <trkpt lat="45.95433" lon="6.77013">
        <ele>1426</ele>
        <time>2000-01-01T04:25:20.000Z</time>
      </trkpt>
      <trkpt lat="45.95417" lon="6.77007">
        <ele>1432.7</ele>
        <time>2000-01-01T04:25:30.000Z</time>
      </trkpt>
      <trkpt lat="45.95399" lon="6.77004">
        <ele>1421</ele>
        <time>2000-01-01T04:25:40.000Z</time>
      </trkpt>
      <trkpt lat="45.9539" lon="6.76994">
        <ele>1424.8</ele>
        <time>2000-01-01T04:25:50.000Z</time>
      </trkpt>
      <trkpt lat="45.95379" lon="6.76947">
        <ele>1417</ele>
        <time>2000-01-01T04:26:00.000Z</time>
      </trkpt>
      <trkpt lat="45.95371" lon="6.7692">
        <ele>1414</ele>
        <time>2000-01-01T04:26:10.000Z</time>
      </trkpt>
      <trkpt lat="45.95371" lon="6.76885">
        <ele>1414</ele>
        <time>2000-01-01T04:26:20.000Z</time>
      </trkpt>
      <trkpt lat="45.95359" lon="6.76854">
        <ele>1411</ele>
        <time>2000-01-01T04:26:30.000Z</time>
      </trkpt>
      <trkpt lat="45.95357" lon="6.76829">
        <ele>1426.6</ele>
        <time>2000-01-01T04:26:40.000Z</time>
      </trkpt>
      <trkpt lat="45.95346" lon="6.76795">
        <ele>1409</ele>
        <time>2000-01-01T04:26:50.000Z</time>
      </trkpt>
      <trkpt lat="45.95333" lon="6.76772">
        <ele>1409</ele>
        <time>2000-01-01T04:27:00.000Z</time>
      </trkpt>
      <trkpt lat="45.95324" lon="6.76749">
        <ele>1419.3</ele>
        <time>2000-01-01T04:27:10.000Z</time>
      </trkpt>
      <trkpt lat="45.95317" lon="6.76729">
        <ele>1412</ele>
        <time>2000-01-01T04:27:20.000Z</time>
      </trkpt>
      <trkpt lat="45.95309" lon="6.76712">
        <ele>1421.2</ele>
        <time>2000-01-01T04:27:30.000Z</time>
      </trkpt>
      <trkpt lat="45.95292" lon="6.76698">
        <ele>1414</ele>
        <time>2000-01-01T04:27:40.000Z</time>
      </trkpt>
      <trkpt lat="45.95281" lon="6.7669">
        <ele>1420.6</ele>
        <time>2000-01-01T04:27:50.000Z</time>
      </trkpt>
      <trkpt lat="45.9527" lon="6.76669">
        <ele>1414</ele>
        <time>2000-01-01T04:28:00.000Z</time>
      </trkpt>
      <trkpt lat="45.95261" lon="6.76643">
        <ele>1416</ele>
        <time>2000-01-01T04:28:10.000Z</time>
      </trkpt>
      <trkpt lat="45.95246" lon="6.76614">
        <ele>1416</ele>
        <time>2000-01-01T04:28:20.000Z</time>
      </trkpt>
      <trkpt lat="45.95219" lon="6.76579">
        <ele>1416</ele>
        <time>2000-01-01T04:28:30.000Z</time>
      </trkpt>
      <trkpt lat="45.95207" lon="6.76551">
        <ele>1416</ele>
        <time>2000-01-01T04:28:40.000Z</time>
      </trkpt>
      <trkpt lat="45.95196" lon="6.76521">
        <ele>1416</ele>
        <time>2000-01-01T04:28:50.000Z</time>
      </trkpt>
      <trkpt lat="45.95187" lon="6.76503">
        <ele>1425.8</ele>
        <time>2000-01-01T04:29:00.000Z</time>
      </trkpt>
      <trkpt lat="45.95174" lon="6.76484">
        <ele>1416</ele>
        <time>2000-01-01T04:29:10.000Z</time>
      </trkpt>
      <trkpt lat="45.95164" lon="6.76468">
        <ele>1419.8</ele>
        <time>2000-01-01T04:29:20.000Z</time>
      </trkpt>
      <trkpt lat="45.95155" lon="6.76451">
        <ele>1414</ele>
        <time>2000-01-01T04:29:30.000Z</time>
      </trkpt>
      <trkpt lat="45.95145" lon="6.76426">
        <ele>1413</ele>
        <time>2000-01-01T04:29:40.000Z</time>
      </trkpt>
      <trkpt lat="45.95138" lon="6.76397">
        <ele>1413</ele>
        <time>2000-01-01T04:29:50.000Z</time>
      </trkpt>
      <trkpt lat="45.95128" lon="6.76375">
        <ele>1418.5</ele>
        <time>2000-01-01T04:30:00.000Z</time>
      </trkpt>
      <trkpt lat="45.95119" lon="6.76358">
        <ele>1412</ele>
        <time>2000-01-01T04:30:10.000Z</time>
      </trkpt>
      <trkpt lat="45.95107" lon="6.76341">
        <ele>1416.3</ele>
        <time>2000-01-01T04:30:20.000Z</time>
      </trkpt>
      <trkpt lat="45.95096" lon="6.76317">
        <ele>1412</ele>
        <time>2000-01-01T04:30:30.000Z</time>
      </trkpt>
      <trkpt lat="45.95086" lon="6.76308">
        <ele>1418</ele>
        <time>2000-01-01T04:30:40.000Z</time>
      </trkpt>
      <trkpt lat="45.95082" lon="6.76285">
        <ele>1409</ele>
        <time>2000-01-01T04:30:50.000Z</time>
      </trkpt>
      <trkpt lat="45.95073" lon="6.76251">
        <ele>1403</ele>
        <time>2000-01-01T04:31:00.000Z</time>
      </trkpt>
      <trkpt lat="45.95066" lon="6.76232">
        <ele>1409.6</ele>
        <time>2000-01-01T04:31:10.000Z</time>
      </trkpt>
      <trkpt lat="45.95052" lon="6.76214">
        <ele>1401</ele>
        <time>2000-01-01T04:31:20.000Z</time>
      </trkpt>
      <trkpt lat="45.95047" lon="6.76228">
        <ele>1405.3</ele>
        <time>2000-01-01T04:31:30.000Z</time>
      </trkpt>
      <trkpt lat="45.95039" lon="6.76265">
        <ele>1381</ele>
        <time>2000-01-01T04:31:40.000Z</time>
      </trkpt>
      <trkpt lat="45.95032" lon="6.76255">
        <ele>1394.9</ele>
        <time>2000-01-01T04:31:50.000Z</time>
      </trkpt>
      <trkpt lat="45.95027" lon="6.76244">
        <ele>1378</ele>
        <time>2000-01-01T04:32:00.000Z</time>
      </trkpt>
      <trkpt lat="45.95023" lon="6.76231">
        <ele>1398.6</ele>
        <time>2000-01-01T04:32:10.000Z</time>
      </trkpt>
      <trkpt lat="45.95017" lon="6.76215">
        <ele>1377</ele>
        <time>2000-01-01T04:32:20.000Z</time>
      </trkpt>
      <trkpt lat="45.95009" lon="6.76203">
        <ele>1399.7</ele>
        <time>2000-01-01T04:32:30.000Z</time>
      </trkpt>
      <trkpt lat="45.94998" lon="6.76197">
        <ele>1374</ele>
        <time>2000-01-01T04:32:40.000Z</time>
      </trkpt>
      <trkpt lat="45.94983" lon="6.76187">
        <ele>1379</ele>
        <time>2000-01-01T04:32:50.000Z</time>
      </trkpt>
      <trkpt lat="45.9497" lon="6.76176">
        <ele>1368</ele>
        <time>2000-01-01T04:33:00.000Z</time>
      </trkpt>
      <trkpt lat="45.94963" lon="6.76154">
        <ele>1375.1</ele>
        <time>2000-01-01T04:33:10.000Z</time>
      </trkpt>
      <trkpt lat="45.9496" lon="6.7613">
        <ele>1364</ele>
        <time>2000-01-01T04:33:20.000Z</time>
      </trkpt>
      <trkpt lat="45.94966" lon="6.76108">
        <ele>1374.3</ele>
        <time>2000-01-01T04:33:30.000Z</time>
      </trkpt>
      <trkpt lat="45.94985" lon="6.76069">
        <ele>1361</ele>
        <time>2000-01-01T04:33:40.000Z</time>
      </trkpt>
      <trkpt lat="45.94981" lon="6.76053">
        <ele>1366.2</ele>
        <time>2000-01-01T04:33:50.000Z</time>
      </trkpt>
      <trkpt lat="45.94966" lon="6.76059">
        <ele>1353</ele>
        <time>2000-01-01T04:34:00.000Z</time>
      </trkpt>
      <trkpt lat="45.94957" lon="6.76052">
        <ele>1361</ele>
        <time>2000-01-01T04:34:10.000Z</time>
      </trkpt>
      <trkpt lat="45.9495" lon="6.76032">
        <ele>1343</ele>
        <time>2000-01-01T04:34:20.000Z</time>
      </trkpt>
      <trkpt lat="45.94947" lon="6.76">
        <ele>1330</ele>
        <time>2000-01-01T04:34:30.000Z</time>
      </trkpt>
      <trkpt lat="45.94953" lon="6.75976">
        <ele>1339.5</ele>
        <time>2000-01-01T04:34:40.000Z</time>
      </trkpt>
      <trkpt lat="45.94953" lon="6.7596">
        <ele>1323</ele>
        <time>2000-01-01T04:34:50.000Z</time>
      </trkpt>
      <trkpt lat="45.94951" lon="6.75939">
        <ele>1334.2</ele>
        <time>2000-01-01T04:35:00.000Z</time>
      </trkpt>
      <trkpt lat="45.94945" lon="6.75922">
        <ele>1315</ele>
        <time>2000-01-01T04:35:10.000Z</time>
      </trkpt>
      <trkpt lat="45.94944" lon="6.75902">
        <ele>1319.8</ele>
        <time>2000-01-01T04:35:20.000Z</time>
      </trkpt>
      <trkpt lat="45.94948" lon="6.75881">
        <ele>1312</ele>
        <time>2000-01-01T04:35:30.000Z</time>
      </trkpt>
      <trkpt lat="45.94961" lon="6.75846">
        <ele>1312</ele>
        <time>2000-01-01T04:35:40.000Z</time>
      </trkpt>
      <trkpt lat="45.94973" lon="6.7584">
        <ele>1319.9</ele>
        <time>2000-01-01T04:35:50.000Z</time>
      </trkpt>
      <trkpt lat="45.94998" lon="6.75836">
        <ele>1312</ele>
        <time>2000-01-01T04:36:00.000Z</time>
      </trkpt>
      <trkpt lat="45.95015" lon="6.75824">
        <ele>1311</ele>
        <time>2000-01-01T04:36:10.000Z</time>
      </trkpt>
      <trkpt lat="45.95028" lon="6.75805">
        <ele>1330.4</ele>
        <time>2000-01-01T04:36:20.000Z</time>
      </trkpt>
      <trkpt lat="45.95028" lon="6.75791">
        <ele>1311</ele>
        <time>2000-01-01T04:36:30.000Z</time>
      </trkpt>
      <trkpt lat="45.9502" lon="6.75749">
        <ele>1309</ele>
        <time>2000-01-01T04:36:40.000Z</time>
      </trkpt>
      <trkpt lat="45.95012" lon="6.75719">
        <ele>1307</ele>
        <time>2000-01-01T04:36:50.000Z</time>
      </trkpt>
      <trkpt lat="45.95008" lon="6.75688">
        <ele>1306</ele>
        <time>2000-01-01T04:37:00.000Z</time>
      </trkpt>
      <trkpt lat="45.95008" lon="6.75656">
        <ele>1305</ele>
        <time>2000-01-01T04:37:10.000Z</time>
      </trkpt>
      <trkpt lat="45.9501" lon="6.75636">
        <ele>1323.4</ele>
        <time>2000-01-01T04:37:20.000Z</time>
      </trkpt>
      <trkpt lat="45.95016" lon="6.75613">
        <ele>1304</ele>
        <time>2000-01-01T04:37:30.000Z</time>
      </trkpt>
      <trkpt lat="45.95038" lon="6.75586">
        <ele>1303</ele>
        <time>2000-01-01T04:37:40.000Z</time>
      </trkpt>
      <trkpt lat="45.9505" lon="6.75579">
        <ele>1315.7</ele>
        <time>2000-01-01T04:37:50.000Z</time>
      </trkpt>
      <trkpt lat="45.95072" lon="6.75578">
        <ele>1301</ele>
        <time>2000-01-01T04:38:00.000Z</time>
      </trkpt>
      <trkpt lat="45.95086" lon="6.7557">
        <ele>1324.6</ele>
        <time>2000-01-01T04:38:10.000Z</time>
      </trkpt>
      <trkpt lat="45.95095" lon="6.75536">
        <ele>1297</ele>
        <time>2000-01-01T04:38:20.000Z</time>
      </trkpt>
      <trkpt lat="45.95099" lon="6.75508">
        <ele>1301</ele>
        <time>2000-01-01T04:38:30.000Z</time>
      </trkpt>
      <trkpt lat="45.95105" lon="6.75491">
        <ele>1318.2</ele>
        <time>2000-01-01T04:38:40.000Z</time>
      </trkpt>
      <trkpt lat="45.95096" lon="6.75409">
        <ele>1298</ele>
        <time>2000-01-01T04:38:50.000Z</time>
      </trkpt>
      <trkpt lat="45.95099" lon="6.75384">
        <ele>1317.1</ele>
        <time>2000-01-01T04:39:00.000Z</time>
      </trkpt>
      <trkpt lat="45.95093" lon="6.75349">
        <ele>1296</ele>
        <time>2000-01-01T04:39:10.000Z</time>
      </trkpt>
      <trkpt lat="45.95096" lon="6.75319">
        <ele>1294</ele>
        <time>2000-01-01T04:39:20.000Z</time>
      </trkpt>
      <trkpt lat="45.95107" lon="6.75277">
        <ele>1294</ele>
        <time>2000-01-01T04:39:30.000Z</time>
      </trkpt>
      <trkpt lat="45.95109" lon="6.75249">
        <ele>1295</ele>
        <time>2000-01-01T04:39:40.000Z</time>
      </trkpt>
      <trkpt lat="45.95104" lon="6.7521">
        <ele>1299</ele>
        <time>2000-01-01T04:39:50.000Z</time>
      </trkpt>
      <trkpt lat="45.95096" lon="6.75176">
        <ele>1299</ele>
        <time>2000-01-01T04:40:00.000Z</time>
      </trkpt>
      <trkpt lat="45.95088" lon="6.75159">
        <ele>1319.1</ele>
        <time>2000-01-01T04:40:10.000Z</time>
      </trkpt>
      <trkpt lat="45.95069" lon="6.75145">
        <ele>1299</ele>
        <time>2000-01-01T04:40:20.000Z</time>
      </trkpt>
      <trkpt lat="45.95031" lon="6.75141">
        <ele>1294</ele>
        <time>2000-01-01T04:40:30.000Z</time>
      </trkpt>
      <trkpt lat="45.95012" lon="6.75112">
        <ele>1294</ele>
        <time>2000-01-01T04:40:40.000Z</time>
      </trkpt>
      <trkpt lat="45.94989" lon="6.75065">
        <ele>1295</ele>
        <time>2000-01-01T04:40:50.000Z</time>
      </trkpt>
      <trkpt lat="45.94976" lon="6.75036">
        <ele>1296</ele>
        <time>2000-01-01T04:41:00.000Z</time>
      </trkpt>
      <trkpt lat="45.94965" lon="6.75016">
        <ele>1304.8</ele>
        <time>2000-01-01T04:41:10.000Z</time>
      </trkpt>
      <trkpt lat="45.94954" lon="6.74983">
        <ele>1297</ele>
        <time>2000-01-01T04:41:20.000Z</time>
      </trkpt>
      <trkpt lat="45.94945" lon="6.74953">
        <ele>1299</ele>
        <time>2000-01-01T04:41:30.000Z</time>
      </trkpt>
      <trkpt lat="45.94939" lon="6.74941">
        <ele>1314.4</ele>
        <time>2000-01-01T04:41:40.000Z</time>
      </trkpt>
      <trkpt lat="45.94924" lon="6.74936">
        <ele>1302</ele>
        <time>2000-01-01T04:41:50.000Z</time>
      </trkpt>
      <trkpt lat="45.94907" lon="6.74932">
        <ele>1307</ele>
        <time>2000-01-01T04:42:00.000Z</time>
      </trkpt>
      <trkpt lat="45.9489" lon="6.74929">
        <ele>1301</ele>
        <time>2000-01-01T04:42:10.000Z</time>
      </trkpt>
      <trkpt lat="45.94877" lon="6.74919">
        <ele>1302.8</ele>
        <time>2000-01-01T04:42:20.000Z</time>
      </trkpt>
      <trkpt lat="45.9486" lon="6.74894">
        <ele>1301</ele>
        <time>2000-01-01T04:42:30.000Z</time>
      </trkpt>
      <trkpt lat="45.94851" lon="6.7487">
        <ele>1302</ele>
        <time>2000-01-01T04:42:40.000Z</time>
      </trkpt>
      <trkpt lat="45.94839" lon="6.74849">
        <ele>1303</ele>
        <time>2000-01-01T04:42:50.000Z</time>
      </trkpt>
      <trkpt lat="45.94836" lon="6.74822">
        <ele>1306</ele>
        <time>2000-01-01T04:43:00.000Z</time>
      </trkpt>
      <trkpt lat="45.94836" lon="6.74802">
        <ele>1323.3</ele>
        <time>2000-01-01T04:43:10.000Z</time>
      </trkpt>
      <trkpt lat="45.94834" lon="6.74779">
        <ele>1310</ele>
        <time>2000-01-01T04:43:20.000Z</time>
      </trkpt>
      <trkpt lat="45.94835" lon="6.74765">
        <ele>1324.7</ele>
        <time>2000-01-01T04:43:30.000Z</time>
      </trkpt>
      <trkpt lat="45.94848" lon="6.74736">
        <ele>1313</ele>
        <time>2000-01-01T04:43:40.000Z</time>
      </trkpt>
      <trkpt lat="45.94856" lon="6.7471">
        <ele>1315</ele>
        <time>2000-01-01T04:43:50.000Z</time>
      </trkpt>
      <trkpt lat="45.94857" lon="6.74684">
        <ele>1333.3</ele>
        <time>2000-01-01T04:44:00.000Z</time>
      </trkpt>
      <trkpt lat="45.94853" lon="6.74659">
        <ele>1316</ele>
        <time>2000-01-01T04:44:10.000Z</time>
      </trkpt>
      <trkpt lat="45.94859" lon="6.74637">
        <ele>1335.4</ele>
        <time>2000-01-01T04:44:20.000Z</time>
      </trkpt>
      <trkpt lat="45.94862" lon="6.74607">
        <ele>1319</ele>
        <time>2000-01-01T04:44:30.000Z</time>
      </trkpt>
      <trkpt lat="45.94852" lon="6.74581">
        <ele>1319</ele>
        <time>2000-01-01T04:44:40.000Z</time>
      </trkpt>
      <trkpt lat="45.94841" lon="6.74561">
        <ele>1335.4</ele>
        <time>2000-01-01T04:44:50.000Z</time>
      </trkpt>
      <trkpt lat="45.94841" lon="6.74526">
        <ele>1318</ele>
        <time>2000-01-01T04:45:00.000Z</time>
      </trkpt>
      <trkpt lat="45.94837" lon="6.74506">
        <ele>1334.2</ele>
        <time>2000-01-01T04:45:10.000Z</time>
      </trkpt>
      <trkpt lat="45.94829" lon="6.74487">
        <ele>1318</ele>
        <time>2000-01-01T04:45:20.000Z</time>
      </trkpt>
      <trkpt lat="45.94822" lon="6.74462">
        <ele>1327.3</ele>
        <time>2000-01-01T04:45:30.000Z</time>
      </trkpt>
      <trkpt lat="45.94818" lon="6.74433">
        <ele>1322</ele>
        <time>2000-01-01T04:45:40.000Z</time>
      </trkpt>
      <trkpt lat="45.94822" lon="6.74405">
        <ele>1326</ele>
        <time>2000-01-01T04:45:50.000Z</time>
      </trkpt>
      <trkpt lat="45.94829" lon="6.74385">
        <ele>1328.2</ele>
        <time>2000-01-01T04:46:00.000Z</time>
      </trkpt>
      <trkpt lat="45.9483" lon="6.74365">
        <ele>1326</ele>
        <time>2000-01-01T04:46:10.000Z</time>
      </trkpt>
      <trkpt lat="45.94822" lon="6.74327">
        <ele>1325</ele>
        <time>2000-01-01T04:46:20.000Z</time>
      </trkpt>
      <trkpt lat="45.9483" lon="6.74278">
        <ele>1327</ele>
        <time>2000-01-01T04:46:30.000Z</time>
      </trkpt>
      <trkpt lat="45.94843" lon="6.74255">
        <ele>1330</ele>
        <time>2000-01-01T04:46:40.000Z</time>
      </trkpt>
      <trkpt lat="45.94858" lon="6.74238">
        <ele>1331</ele>
        <time>2000-01-01T04:46:50.000Z</time>
      </trkpt>
      <trkpt lat="45.94866" lon="6.74226">
        <ele>1337.2</ele>
        <time>2000-01-01T04:47:00.000Z</time>
      </trkpt>
      <trkpt lat="45.9488" lon="6.74214">
        <ele>1336</ele>
        <time>2000-01-01T04:47:10.000Z</time>
      </trkpt>
      <trkpt lat="45.94907" lon="6.74181">
        <ele>1340</ele>
        <time>2000-01-01T04:47:20.000Z</time>
      </trkpt>
      <trkpt lat="45.94925" lon="6.74158">
        <ele>1342</ele>
        <time>2000-01-01T04:47:30.000Z</time>
      </trkpt>
      <trkpt lat="45.94931" lon="6.74137">
        <ele>1347.7</ele>
        <time>2000-01-01T04:47:40.000Z</time>
      </trkpt>
      <trkpt lat="45.94935" lon="6.7412">
        <ele>1343</ele>
        <time>2000-01-01T04:47:50.000Z</time>
      </trkpt>
      <trkpt lat="45.94947" lon="6.74106">
        <ele>1348.3</ele>
        <time>2000-01-01T04:48:00.000Z</time>
      </trkpt>
      <trkpt lat="45.94952" lon="6.74099">
        <ele>1346</ele>
        <time>2000-01-01T04:48:10.000Z</time>
      </trkpt>
      <trkpt lat="45.94967" lon="6.74074">
        <ele>1348</ele>
        <time>2000-01-01T04:48:20.000Z</time>
      </trkpt>
      <trkpt lat="45.94978" lon="6.74064">
        <ele>1349.6</ele>
        <time>2000-01-01T04:48:30.000Z</time>
      </trkpt>
      <trkpt lat="45.94986" lon="6.74053">
        <ele>1351</ele>
        <time>2000-01-01T04:48:40.000Z</time>
      </trkpt>
      <trkpt lat="45.94998" lon="6.74033">
        <ele>1349.7</ele>
        <time>2000-01-01T04:48:50.000Z</time>
      </trkpt>
      <trkpt lat="45.95013" lon="6.74017">
        <ele>1354</ele>
        <time>2000-01-01T04:49:00.000Z</time>
      </trkpt>
      <trkpt lat="45.95012" lon="6.74016">
        <ele>1354.7</ele>
        <time>2000-01-01T04:49:10.000Z</time>
      </trkpt>
      <trkpt lat="45.95025" lon="6.74001">
        <ele>1354.9</ele>
        <time>2000-01-01T04:49:20.000Z</time>
      </trkpt>
      <trkpt lat="45.95024" lon="6.74">
        <ele>1355</ele>
        <time>2000-01-01T04:49:30.000Z</time>
      </trkpt>
    </trkseg>
  </trk>
</gpx>